CPA873 KSFO-VHHH
Flight info
| Callsign | CPA873 |
|---|---|
| Flight time | N/A |
| Altitude | 30000 |
| Route | GNNRR3 AMAKR DCT REDWD DCT TRYSH DCT 44N140W/N0494F320 45N145W 46N150W 48N160W 50N170W/N0491F340 50N180E 47N170E 43N160E DCT KALNA/N0483F360 OTR5 ADNAP Y807 LALID Y804 INUBO Y50 ELNIS Y564 IBENO Y56 TOHME Y54 TURFY Y24 KOSHI Y50 AKVAS/N0483F380 Y50 IGMON A1 DRAKE DCT APU A1 HOMEI DCT MKG A1 ELATO V522 ABBEY |
| Aircraft | B77W/H-SDE1E2E3FGHIJ2J3J4J5M1RWXY/LB1D1 |
Departure
| Time | 2026-05-07 08:30 |
|---|---|
| Airport | San Francisco International Airport (KSFO) |
Arrival
| Time | N/A |
|---|---|
| Airport | Hong Kong International Airport (VHHH) |
| Time | Latitude | Longitude | Altitude | Speed | Heading |
|---|---|---|---|---|---|
| 2026-05-07 08:08 | 37.61272 | -122.39033 | 40 ft | 0 kts | 118° |
| 2026-05-07 08:18 | 37.61273 | -122.39033 | 40 ft | 0 kts | 118° |
| 2026-05-07 08:18 | 37.61274 | -122.39037 | 40 ft | 2 kts | 118° |
| 2026-05-07 08:18 | 37.61281 | -122.39053 | 40 ft | 2 kts | 118° |
| 2026-05-07 08:19 | 37.61288 | -122.39070 | 39 ft | 2 kts | 120° |
| 2026-05-07 08:19 | 37.61297 | -122.39085 | 39 ft | 2 kts | 140° |
| 2026-05-07 08:19 | 37.61309 | -122.39095 | 39 ft | 2 kts | 158° |
| 2026-05-07 08:19 | 37.61324 | -122.39101 | 39 ft | 2 kts | 175° |
| 2026-05-07 08:20 | 37.61339 | -122.39100 | 40 ft | 2 kts | 192° |
| 2026-05-07 08:20 | 37.61351 | -122.39095 | 40 ft | 0 kts | 207° |
| 2026-05-07 08:20 | 37.61355 | -122.39092 | 40 ft | 0 kts | 208° |
| 2026-05-07 08:22 | 37.61346 | -122.39098 | 39 ft | 5 kts | 208° |
| 2026-05-07 08:22 | 37.61279 | -122.39142 | 39 ft | 15 kts | 207° |
| 2026-05-07 08:22 | 37.61150 | -122.39185 | 39 ft | 23 kts | 157° |
| 2026-05-07 08:23 | 37.61029 | -122.39029 | 39 ft | 23 kts | 130° |
| 2026-05-07 08:23 | 37.60933 | -122.38874 | 39 ft | 21 kts | 123° |
| 2026-05-07 08:23 | 37.60862 | -122.38712 | 40 ft | 20 kts | 118° |
| 2026-05-07 08:23 | 37.60796 | -122.38550 | 39 ft | 20 kts | 122° |
| 2026-05-07 08:24 | 37.60674 | -122.38470 | 38 ft | 19 kts | 142° |
| 2026-05-07 08:24 | 37.60582 | -122.38339 | 38 ft | 19 kts | 130° |
| 2026-05-07 08:24 | 37.60505 | -122.38196 | 37 ft | 19 kts | 103° |
| 2026-05-07 08:24 | 37.60518 | -122.38024 | 37 ft | 19 kts | 76° |
| 2026-05-07 08:25 | 37.60617 | -122.37920 | 36 ft | 19 kts | 26° |
| 2026-05-07 08:25 | 37.60741 | -122.37839 | 36 ft | 22 kts | 30° |
| 2026-05-07 08:25 | 37.60890 | -122.37737 | 35 ft | 23 kts | 26° |
| 2026-05-07 08:25 | 37.61029 | -122.37649 | 34 ft | 21 kts | 28° |
| 2026-05-07 08:26 | 37.61281 | -122.37479 | 31 ft | 22 kts | 27° |
| 2026-05-07 08:26 | 37.61424 | -122.37384 | 29 ft | 22 kts | 27° |
| 2026-05-07 08:26 | 37.61539 | -122.37272 | 26 ft | 20 kts | 60° |
| 2026-05-07 08:27 | 37.61544 | -122.37102 | 24 ft | 20 kts | 112° |
| 2026-05-07 08:27 | 37.61469 | -122.36929 | 22 ft | 23 kts | 126° |
| 2026-05-07 08:27 | 37.61360 | -122.36762 | 20 ft | 24 kts | 120° |
| 2026-05-07 08:27 | 37.61282 | -122.36582 | 19 ft | 22 kts | 118° |
| 2026-05-07 08:28 | 37.61215 | -122.36422 | 19 ft | 19 kts | 118° |
| 2026-05-07 08:28 | 37.61158 | -122.36283 | 19 ft | 16 kts | 118° |
| 2026-05-07 08:28 | 37.61105 | -122.36162 | 18 ft | 15 kts | 118° |
| 2026-05-07 08:28 | 37.61053 | -122.36026 | 18 ft | 17 kts | 103° |
| 2026-05-07 08:29 | 37.61093 | -122.35909 | 18 ft | 14 kts | 33° |
| 2026-05-07 08:29 | 37.61172 | -122.35867 | 18 ft | 10 kts | 347° |
| 2026-05-07 08:29 | 37.61219 | -122.35947 | 18 ft | 19 kts | 296° |
| 2026-05-07 08:29 | 37.61375 | -122.36324 | 19 ft | 78 kts | 297° |
| 2026-05-07 08:30 | 37.61721 | -122.37148 | 25 ft | 133 kts | 298° |
| 2026-05-07 08:30 | 37.62230 | -122.38357 | 43 ft | 177 kts | 297° |
| 2026-05-07 08:30 | 37.62815 | -122.39776 | 495 ft | 184 kts | 295° |
| 2026-05-07 08:30 | 37.63387 | -122.41232 | 1183 ft | 185 kts | 299° |
| 2026-05-07 08:31 | 37.64019 | -122.42668 | 1459 ft | 196 kts | 299° |
| 2026-05-07 08:31 | 37.64719 | -122.44223 | 1612 ft | 213 kts | 300° |
| 2026-05-07 08:31 | 37.65478 | -122.45900 | 1845 ft | 228 kts | 300° |
| 2026-05-07 08:31 | 37.66283 | -122.47687 | 2133 ft | 243 kts | 300° |
| 2026-05-07 08:32 | 37.67136 | -122.49585 | 2618 ft | 249 kts | 300° |
| 2026-05-07 08:32 | 37.68094 | -122.51408 | 3144 ft | 254 kts | 307° |
| 2026-05-07 08:32 | 37.69161 | -122.53214 | 3709 ft | 257 kts | 308° |
| 2026-05-07 08:32 | 37.70235 | -122.55024 | 4261 ft | 260 kts | 308° |
| 2026-05-07 08:33 | 37.71318 | -122.56857 | 4782 ft | 265 kts | 307° |
| 2026-05-07 08:33 | 37.72436 | -122.58754 | 5278 ft | 270 kts | 307° |
| 2026-05-07 08:33 | 37.73545 | -122.60639 | 5885 ft | 270 kts | 307° |
| 2026-05-07 08:33 | 37.74676 | -122.62562 | 6400 ft | 275 kts | 307° |
| 2026-05-07 08:34 | 37.75829 | -122.64523 | 6896 ft | 279 kts | 307° |
| 2026-05-07 08:34 | 37.76982 | -122.66486 | 7445 ft | 281 kts | 306° |
| 2026-05-07 08:34 | 37.78142 | -122.68462 | 7966 ft | 284 kts | 306° |
| 2026-05-07 08:34 | 37.79328 | -122.70484 | 8483 ft | 287 kts | 306° |
| 2026-05-07 08:35 | 37.80512 | -122.72501 | 9016 ft | 288 kts | 306° |
| 2026-05-07 08:35 | 37.81718 | -122.74555 | 9515 ft | 291 kts | 308° |
| 2026-05-07 08:35 | 37.83174 | -122.76313 | 9961 ft | 294 kts | 324° |
| 2026-05-07 08:35 | 37.84907 | -122.77807 | 10259 ft | 306 kts | 326° |
| 2026-05-07 08:36 | 37.86727 | -122.79300 | 10428 ft | 321 kts | 326° |
| 2026-05-07 08:36 | 37.88665 | -122.80895 | 10628 ft | 337 kts | 326° |
| 2026-05-07 08:36 | 37.90659 | -122.82545 | 10832 ft | 352 kts | 326° |
| 2026-05-07 08:36 | 37.92761 | -122.84290 | 11073 ft | 366 kts | 326° |
| 2026-05-07 08:37 | 37.94906 | -122.86071 | 11445 ft | 375 kts | 326° |
| 2026-05-07 08:37 | 37.97111 | -122.87905 | 12000 ft | 379 kts | 326° |
| 2026-05-07 08:37 | 37.99306 | -122.89732 | 12598 ft | 381 kts | 326° |
| 2026-05-07 08:37 | 38.01550 | -122.91600 | 13182 ft | 385 kts | 326° |
| 2026-05-07 08:38 | 38.03778 | -122.93457 | 13778 ft | 388 kts | 326° |
| 2026-05-07 08:38 | 38.06035 | -122.95340 | 14396 ft | 391 kts | 326° |
| 2026-05-07 08:38 | 38.08334 | -122.97259 | 15010 ft | 394 kts | 326° |
| 2026-05-07 08:38 | 38.10623 | -122.99171 | 15610 ft | 398 kts | 326° |
| 2026-05-07 08:39 | 38.12967 | -123.01131 | 16260 ft | 401 kts | 326° |
| 2026-05-07 08:39 | 38.15294 | -123.03078 | 16895 ft | 403 kts | 326° |
| 2026-05-07 08:39 | 38.17659 | -123.05057 | 17504 ft | 406 kts | 326° |
| 2026-05-07 08:39 | 38.20008 | -123.07027 | 18061 ft | 410 kts | 326° |
| 2026-05-07 08:40 | 38.22408 | -123.09039 | 18654 ft | 412 kts | 327° |
| 2026-05-07 08:40 | 38.24789 | -123.11037 | 19254 ft | 414 kts | 327° |
| 2026-05-07 08:40 | 38.27215 | -123.13075 | 19812 ft | 417 kts | 327° |
| 2026-05-07 08:40 | 38.29625 | -123.15101 | 20349 ft | 420 kts | 327° |
| 2026-05-07 08:41 | 38.32091 | -123.17176 | 20897 ft | 422 kts | 327° |
| 2026-05-07 08:41 | 38.34530 | -123.19230 | 21404 ft | 425 kts | 327° |
| 2026-05-07 08:41 | 38.37020 | -123.21329 | 21902 ft | 428 kts | 327° |
| 2026-05-07 08:41 | 38.39497 | -123.23418 | 22407 ft | 431 kts | 327° |
| 2026-05-07 08:42 | 38.42016 | -123.25544 | 22867 ft | 434 kts | 327° |
| 2026-05-07 08:42 | 38.44519 | -123.27658 | 23325 ft | 437 kts | 327° |
| 2026-05-07 08:42 | 38.47046 | -123.29795 | 23776 ft | 440 kts | 327° |
| 2026-05-07 08:42 | 38.49617 | -123.31972 | 24243 ft | 442 kts | 327° |
| 2026-05-07 08:43 | 38.52170 | -123.34134 | 24689 ft | 445 kts | 327° |
| 2026-05-07 08:43 | 38.54773 | -123.36341 | 25163 ft | 447 kts | 327° |
| 2026-05-07 08:43 | 38.57357 | -123.38534 | 25585 ft | 450 kts | 327° |
| 2026-05-07 08:43 | 38.59994 | -123.40773 | 25997 ft | 454 kts | 327° |
| 2026-05-07 08:44 | 38.62604 | -123.42992 | 26430 ft | 456 kts | 327° |
| 2026-05-07 08:44 | 38.65263 | -123.45254 | 26868 ft | 458 kts | 327° |
| 2026-05-07 08:44 | 38.67938 | -123.47532 | 27261 ft | 461 kts | 327° |
| 2026-05-07 08:44 | 38.70603 | -123.49804 | 27672 ft | 464 kts | 327° |
| 2026-05-07 08:45 | 38.73273 | -123.52082 | 28068 ft | 467 kts | 327° |
| 2026-05-07 08:45 | 38.76018 | -123.54426 | 28456 ft | 469 kts | 327° |
| 2026-05-07 08:45 | 38.78742 | -123.56754 | 28823 ft | 472 kts | 327° |
| 2026-05-07 08:45 | 38.81466 | -123.59084 | 29220 ft | 474 kts | 327° |
| 2026-05-07 08:46 | 38.84199 | -123.61425 | 29662 ft | 475 kts | 327° |
| 2026-05-07 08:46 | 38.86973 | -123.63803 | 30083 ft | 476 kts | 327° |
| 2026-05-07 08:46 | 38.92469 | -123.68521 | 30123 ft | 472 kts | 326° |
| 2026-05-07 08:47 | 38.97729 | -123.73434 | 30121 ft | 471 kts | 317° |
| 2026-05-07 08:47 | 39.01788 | -123.80054 | 30123 ft | 475 kts | 300° |
| 2026-05-07 08:48 | 39.04767 | -123.87642 | 30135 ft | 475 kts | 297° |
| 2026-05-07 08:48 | 39.07655 | -123.95221 | 30133 ft | 473 kts | 297° |
| 2026-05-07 08:49 | 39.10544 | -124.02846 | 30134 ft | 472 kts | 297° |
| 2026-05-07 08:49 | 39.13412 | -124.10445 | 30138 ft | 474 kts | 297° |
| 2026-05-07 08:50 | 39.16282 | -124.18076 | 30139 ft | 474 kts | 296° |
| 2026-05-07 08:50 | 39.19151 | -124.25726 | 30139 ft | 475 kts | 296° |
| 2026-05-07 08:51 | 39.22024 | -124.33408 | 30137 ft | 476 kts | 296° |
| 2026-05-07 08:51 | 39.24883 | -124.41073 | 30139 ft | 474 kts | 296° |
| 2026-05-07 08:52 | 39.27734 | -124.48735 | 30140 ft | 474 kts | 296° |
| 2026-05-07 08:52 | 39.30570 | -124.56378 | 30143 ft | 475 kts | 296° |
| 2026-05-07 08:53 | 39.33423 | -124.64088 | 30146 ft | 476 kts | 296° |
| 2026-05-07 08:53 | 39.36268 | -124.71795 | 30148 ft | 475 kts | 295° |
| 2026-05-07 08:54 | 39.39106 | -124.79505 | 30147 ft | 477 kts | 295° |
| 2026-05-07 08:54 | 39.41949 | -124.87248 | 30148 ft | 476 kts | 296° |
| 2026-05-07 08:55 | 39.44769 | -124.94948 | 30152 ft | 477 kts | 295° |
| 2026-05-07 08:55 | 39.47595 | -125.02684 | 30151 ft | 476 kts | 295° |
| 2026-05-07 08:56 | 39.50416 | -125.10429 | 30152 ft | 476 kts | 295° |
| 2026-05-07 08:56 | 39.53233 | -125.18179 | 30157 ft | 477 kts | 295° |
| 2026-05-07 08:57 | 39.56039 | -125.25925 | 30161 ft | 476 kts | 295° |
| 2026-05-07 08:57 | 39.58843 | -125.33682 | 30161 ft | 477 kts | 295° |
| 2026-05-07 08:58 | 39.61639 | -125.41438 | 30167 ft | 475 kts | 295° |
| 2026-05-07 08:58 | 39.64424 | -125.49186 | 30173 ft | 474 kts | 295° |
| 2026-05-07 08:59 | 39.67200 | -125.56925 | 30181 ft | 473 kts | 295° |
| 2026-05-07 08:59 | 39.69967 | -125.64662 | 30181 ft | 473 kts | 295° |
| 2026-05-07 09:00 | 39.72726 | -125.72400 | 30184 ft | 472 kts | 294° |
| 2026-05-07 09:00 | 39.75475 | -125.80128 | 30185 ft | 472 kts | 294° |
| 2026-05-07 09:01 | 39.78215 | -125.87850 | 30189 ft | 471 kts | 294° |
| 2026-05-07 09:01 | 39.80946 | -125.95569 | 30194 ft | 470 kts | 294° |
| 2026-05-07 09:02 | 39.83676 | -126.03303 | 30194 ft | 470 kts | 294° |
| 2026-05-07 09:02 | 39.86375 | -126.10973 | 30193 ft | 470 kts | 294° |
| 2026-05-07 09:03 | 39.89093 | -126.18717 | 30195 ft | 470 kts | 294° |
| 2026-05-07 09:03 | 39.91800 | -126.26449 | 30198 ft | 471 kts | 293° |
| 2026-05-07 09:04 | 39.94505 | -126.34197 | 30199 ft | 471 kts | 293° |
| 2026-05-07 09:04 | 39.97204 | -126.41948 | 30202 ft | 470 kts | 293° |
| 2026-05-07 09:05 | 39.99897 | -126.49704 | 30202 ft | 471 kts | 293° |
| 2026-05-07 09:05 | 40.02379 | -126.57604 | 30202 ft | 471 kts | 290° |
| 2026-05-07 09:06 | 40.04771 | -126.65555 | 30204 ft | 472 kts | 290° |
| 2026-05-07 09:06 | 40.07171 | -126.73515 | 30212 ft | 472 kts | 290° |
| 2026-05-07 09:07 | 40.09573 | -126.81480 | 30210 ft | 472 kts | 290° |
| 2026-05-07 09:07 | 40.11971 | -126.89445 | 30210 ft | 474 kts | 290° |
| 2026-05-07 09:08 | 40.14375 | -126.97449 | 30216 ft | 474 kts | 290° |
| 2026-05-07 09:08 | 40.16992 | -127.05347 | 30215 ft | 475 kts | 295° |
| 2026-05-07 09:09 | 40.19937 | -127.13096 | 30217 ft | 475 kts | 295° |
| 2026-05-07 09:09 | 40.22842 | -127.20824 | 30216 ft | 474 kts | 295° |
| 2026-05-07 09:10 | 40.25726 | -127.28567 | 30225 ft | 475 kts | 295° |
| 2026-05-07 09:10 | 40.28599 | -127.36323 | 30219 ft | 474 kts | 295° |
| 2026-05-07 09:11 | 40.31464 | -127.44089 | 30223 ft | 474 kts | 295° |
| 2026-05-07 09:11 | 40.34323 | -127.51870 | 30224 ft | 475 kts | 296° |
| 2026-05-07 09:12 | 40.37182 | -127.59674 | 30228 ft | 477 kts | 296° |
| 2026-05-07 09:12 | 40.40040 | -127.67498 | 30227 ft | 476 kts | 296° |
| 2026-05-07 09:13 | 40.42890 | -127.75324 | 30233 ft | 482 kts | 296° |
| 2026-05-07 09:13 | 40.45758 | -127.83219 | 30227 ft | 479 kts | 296° |
| 2026-05-07 09:14 | 40.48641 | -127.91177 | 30233 ft | 483 kts | 296° |
| 2026-05-07 09:14 | 40.51512 | -127.99129 | 30231 ft | 482 kts | 296° |
| 2026-05-07 09:15 | 40.54386 | -128.07104 | 30232 ft | 484 kts | 296° |
| 2026-05-07 09:15 | 40.57256 | -128.15094 | 30231 ft | 485 kts | 296° |
| 2026-05-07 09:16 | 40.60130 | -128.23119 | 30231 ft | 485 kts | 296° |
| 2026-05-07 09:16 | 40.62979 | -128.31093 | 30230 ft | 484 kts | 296° |
| 2026-05-07 09:17 | 40.65832 | -128.39104 | 30238 ft | 485 kts | 296° |
| 2026-05-07 09:17 | 40.68692 | -128.47154 | 30226 ft | 487 kts | 296° |
| 2026-05-07 09:18 | 40.71546 | -128.55211 | 30220 ft | 486 kts | 296° |
| 2026-05-07 09:18 | 40.74396 | -128.63278 | 30228 ft | 487 kts | 296° |
| 2026-05-07 09:19 | 40.77236 | -128.71343 | 30224 ft | 486 kts | 295° |
| 2026-05-07 09:19 | 40.80074 | -128.79423 | 30235 ft | 487 kts | 295° |
| 2026-05-07 09:20 | 40.82910 | -128.87518 | 30231 ft | 486 kts | 295° |
| 2026-05-07 09:20 | 40.85734 | -128.95607 | 30238 ft | 487 kts | 295° |
| 2026-05-07 09:21 | 40.88562 | -129.03726 | 30234 ft | 487 kts | 295° |
| 2026-05-07 09:21 | 40.91383 | -129.11852 | 30237 ft | 487 kts | 295° |
| 2026-05-07 09:22 | 40.94195 | -129.19972 | 30235 ft | 486 kts | 295° |
| 2026-05-07 09:22 | 40.96990 | -129.28069 | 30244 ft | 485 kts | 295° |
| 2026-05-07 09:23 | 40.99781 | -129.36174 | 30242 ft | 485 kts | 295° |
| 2026-05-07 09:23 | 41.02566 | -129.44289 | 30243 ft | 485 kts | 295° |
| 2026-05-07 09:24 | 41.05339 | -129.52390 | 30246 ft | 483 kts | 295° |
| 2026-05-07 09:24 | 41.08099 | -129.60475 | 30244 ft | 481 kts | 295° |
| 2026-05-07 09:25 | 41.10834 | -129.68514 | 30249 ft | 481 kts | 294° |
| 2026-05-07 09:25 | 41.13577 | -129.76598 | 30252 ft | 482 kts | 294° |
| 2026-05-07 09:26 | 41.16312 | -129.84680 | 30253 ft | 482 kts | 294° |
| 2026-05-07 09:26 | 41.19059 | -129.92822 | 30253 ft | 482 kts | 294° |
| 2026-05-07 09:27 | 41.21773 | -130.00891 | 30255 ft | 482 kts | 294° |
| 2026-05-07 09:28 | 41.25852 | -130.13062 | 30256 ft | 481 kts | 294° |
| 2026-05-07 09:28 | 41.28556 | -130.21159 | 30254 ft | 478 kts | 294° |
| 2026-05-07 09:29 | 41.31229 | -130.29189 | 30255 ft | 476 kts | 294° |
| 2026-05-07 09:29 | 41.33909 | -130.37260 | 30253 ft | 475 kts | 294° |
| 2026-05-07 09:30 | 41.36565 | -130.45283 | 30254 ft | 476 kts | 293° |
| 2026-05-07 09:30 | 41.39228 | -130.53352 | 30250 ft | 477 kts | 293° |
| 2026-05-07 09:31 | 41.41871 | -130.61385 | 30250 ft | 477 kts | 293° |
| 2026-05-07 09:31 | 41.44517 | -130.69449 | 30255 ft | 476 kts | 292° |
| 2026-05-07 09:32 | 41.47159 | -130.77524 | 30259 ft | 475 kts | 292° |
| 2026-05-07 09:32 | 41.49792 | -130.85594 | 30266 ft | 476 kts | 292° |
| 2026-05-07 09:33 | 41.52422 | -130.93683 | 30273 ft | 476 kts | 292° |
| 2026-05-07 09:33 | 41.55038 | -131.01749 | 30278 ft | 476 kts | 292° |
| 2026-05-07 09:34 | 41.57654 | -131.09840 | 30276 ft | 475 kts | 292° |
| 2026-05-07 09:34 | 41.60258 | -131.17918 | 30274 ft | 476 kts | 292° |
| 2026-05-07 09:35 | 41.62866 | -131.26035 | 30272 ft | 475 kts | 292° |
| 2026-05-07 09:35 | 41.65461 | -131.34132 | 30274 ft | 476 kts | 291° |
| 2026-05-07 09:36 | 41.68057 | -131.42259 | 30276 ft | 476 kts | 291° |
| 2026-05-07 09:36 | 41.70644 | -131.50383 | 30273 ft | 476 kts | 291° |
| 2026-05-07 09:37 | 41.73225 | -131.58508 | 30271 ft | 476 kts | 291° |
| 2026-05-07 09:37 | 41.75816 | -131.66696 | 30273 ft | 476 kts | 291° |
| 2026-05-07 09:38 | 41.78383 | -131.74826 | 30272 ft | 475 kts | 291° |
| 2026-05-07 09:38 | 41.80936 | -131.82942 | 30271 ft | 476 kts | 291° |
| 2026-05-07 09:39 | 41.83494 | -131.91095 | 30271 ft | 476 kts | 290° |
| 2026-05-07 09:39 | 41.86046 | -131.99255 | 30261 ft | 477 kts | 290° |
| 2026-05-07 09:40 | 41.88603 | -132.07457 | 30258 ft | 477 kts | 290° |
| 2026-05-07 09:40 | 41.91160 | -132.15683 | 30257 ft | 476 kts | 290° |
| 2026-05-07 09:41 | 41.93698 | -132.23872 | 30256 ft | 476 kts | 290° |
| 2026-05-07 09:41 | 41.96226 | -132.32059 | 30256 ft | 475 kts | 290° |
| 2026-05-07 09:42 | 41.98750 | -132.40253 | 30257 ft | 475 kts | 290° |
| 2026-05-07 09:42 | 42.01265 | -132.48447 | 30256 ft | 475 kts | 290° |
| 2026-05-07 09:43 | 42.03773 | -132.56639 | 30256 ft | 475 kts | 290° |
| 2026-05-07 09:43 | 42.06271 | -132.64827 | 30256 ft | 475 kts | 290° |
| 2026-05-07 09:44 | 42.08772 | -132.73050 | 30260 ft | 475 kts | 289° |
| 2026-05-07 09:44 | 42.11258 | -132.81251 | 30254 ft | 475 kts | 289° |
| 2026-05-07 09:45 | 42.13743 | -132.89475 | 30254 ft | 475 kts | 289° |
| 2026-05-07 09:45 | 42.16222 | -132.97700 | 30253 ft | 474 kts | 289° |
| 2026-05-07 09:46 | 42.18694 | -133.05933 | 30254 ft | 475 kts | 289° |
| 2026-05-07 09:46 | 42.21159 | -133.14165 | 30251 ft | 474 kts | 289° |
| 2026-05-07 09:47 | 42.23617 | -133.22403 | 30248 ft | 474 kts | 289° |
| 2026-05-07 09:47 | 42.26070 | -133.30650 | 30249 ft | 475 kts | 289° |
| 2026-05-07 09:48 | 42.28520 | -133.38908 | 30246 ft | 474 kts | 289° |
| 2026-05-07 09:48 | 42.30959 | -133.47160 | 30247 ft | 474 kts | 289° |
| 2026-05-07 09:49 | 42.33392 | -133.55418 | 30243 ft | 475 kts | 289° |
| 2026-05-07 09:49 | 42.35813 | -133.63661 | 30242 ft | 472 kts | 289° |
| 2026-05-07 09:50 | 42.38229 | -133.71912 | 30248 ft | 473 kts | 288° |
| 2026-05-07 09:50 | 42.40640 | -133.80174 | 30248 ft | 474 kts | 288° |
| 2026-05-07 09:51 | 42.43048 | -133.88452 | 30249 ft | 474 kts | 288° |
| 2026-05-07 09:51 | 42.45457 | -133.96761 | 30247 ft | 474 kts | 288° |
| 2026-05-07 09:52 | 42.47852 | -134.05048 | 30245 ft | 474 kts | 288° |
| 2026-05-07 09:52 | 42.50243 | -134.13348 | 30237 ft | 473 kts | 288° |
| 2026-05-07 09:53 | 42.52623 | -134.21639 | 30239 ft | 473 kts | 288° |
| 2026-05-07 09:53 | 42.55007 | -134.29971 | 30228 ft | 475 kts | 287° |
| 2026-05-07 09:54 | 42.57385 | -134.38307 | 30219 ft | 474 kts | 287° |
| 2026-05-07 09:54 | 42.59758 | -134.46657 | 30222 ft | 476 kts | 287° |
| 2026-05-07 09:55 | 42.62108 | -134.54947 | 30217 ft | 476 kts | 287° |
| 2026-05-07 09:55 | 42.64478 | -134.63341 | 30214 ft | 475 kts | 287° |
| 2026-05-07 09:56 | 42.66832 | -134.71704 | 30216 ft | 475 kts | 286° |
| 2026-05-07 09:56 | 42.69178 | -134.80064 | 30221 ft | 475 kts | 286° |
| 2026-05-07 09:57 | 42.71531 | -134.88484 | 30224 ft | 477 kts | 286° |
| 2026-05-07 09:57 | 42.73871 | -134.96881 | 30225 ft | 475 kts | 286° |
| 2026-05-07 09:58 | 42.76207 | -135.05295 | 30229 ft | 477 kts | 286° |
| 2026-05-07 09:58 | 42.78538 | -135.13716 | 30226 ft | 477 kts | 286° |
| 2026-05-07 09:59 | 42.80863 | -135.22147 | 30218 ft | 476 kts | 286° |
| 2026-05-07 09:59 | 42.83174 | -135.30554 | 30222 ft | 477 kts | 286° |
| 2026-05-07 10:00 | 42.85492 | -135.39014 | 30218 ft | 475 kts | 286° |
| 2026-05-07 10:00 | 42.87801 | -135.47475 | 30216 ft | 479 kts | 286° |
| 2026-05-07 10:01 | 42.90100 | -135.55922 | 30213 ft | 478 kts | 285° |
| 2026-05-07 10:01 | 42.92397 | -135.64397 | 30205 ft | 478 kts | 285° |
| 2026-05-07 10:02 | 42.94696 | -135.72903 | 30210 ft | 479 kts | 285° |
| 2026-05-07 10:02 | 42.96987 | -135.81412 | 30212 ft | 478 kts | 285° |
| 2026-05-07 10:03 | 42.99271 | -135.89928 | 30205 ft | 479 kts | 284° |
| 2026-05-07 10:03 | 43.01553 | -135.98460 | 30201 ft | 478 kts | 284° |
| 2026-05-07 10:04 | 43.03820 | -136.06970 | 30197 ft | 477 kts | 284° |
| 2026-05-07 10:04 | 43.06093 | -136.15535 | 30198 ft | 480 kts | 284° |
| 2026-05-07 10:05 | 43.08360 | -136.24104 | 30191 ft | 481 kts | 284° |
| 2026-05-07 10:05 | 43.10621 | -136.32681 | 30174 ft | 479 kts | 284° |
| 2026-05-07 10:06 | 43.12881 | -136.41289 | 30172 ft | 483 kts | 284° |
| 2026-05-07 10:06 | 43.15137 | -136.49904 | 30178 ft | 480 kts | 284° |
| 2026-05-07 10:07 | 43.17384 | -136.58522 | 30162 ft | 480 kts | 284° |
| 2026-05-07 10:07 | 43.19623 | -136.67140 | 30172 ft | 482 kts | 283° |
| 2026-05-07 10:08 | 43.21865 | -136.75803 | 30163 ft | 483 kts | 283° |
| 2026-05-07 10:08 | 43.24097 | -136.84454 | 30159 ft | 483 kts | 283° |
| 2026-05-07 10:09 | 43.26324 | -136.93126 | 30152 ft | 485 kts | 283° |
| 2026-05-07 10:09 | 43.28546 | -137.01796 | 30155 ft | 483 kts | 283° |
| 2026-05-07 10:10 | 43.30757 | -137.10471 | 30156 ft | 486 kts | 283° |
| 2026-05-07 10:10 | 43.32974 | -137.19189 | 30150 ft | 484 kts | 283° |
| 2026-05-07 10:11 | 43.35189 | -137.27934 | 30149 ft | 483 kts | 283° |
| 2026-05-07 10:11 | 43.37386 | -137.36644 | 30148 ft | 484 kts | 283° |
| 2026-05-07 10:12 | 43.39585 | -137.45393 | 30140 ft | 484 kts | 283° |
| 2026-05-07 10:12 | 43.41773 | -137.54132 | 30138 ft | 486 kts | 283° |
| 2026-05-07 10:13 | 43.43964 | -137.62920 | 30136 ft | 487 kts | 283° |
| 2026-05-07 10:13 | 43.46135 | -137.71652 | 30133 ft | 488 kts | 282° |
| 2026-05-07 10:14 | 43.48315 | -137.80458 | 30130 ft | 485 kts | 282° |
| 2026-05-07 10:14 | 43.50483 | -137.89247 | 30121 ft | 487 kts | 282° |
| 2026-05-07 10:15 | 43.52653 | -137.98086 | 30110 ft | 488 kts | 282° |
| 2026-05-07 10:15 | 43.54814 | -138.06917 | 30108 ft | 491 kts | 282° |
| 2026-05-07 10:16 | 43.56985 | -138.15819 | 30107 ft | 488 kts | 282° |
| 2026-05-07 10:16 | 43.59145 | -138.24713 | 30097 ft | 490 kts | 282° |
| 2026-05-07 10:17 | 43.61283 | -138.33551 | 30094 ft | 487 kts | 282° |
| 2026-05-07 10:17 | 43.63436 | -138.42494 | 30093 ft | 491 kts | 282° |
| 2026-05-07 10:18 | 43.65574 | -138.51399 | 30092 ft | 490 kts | 282° |
| 2026-05-07 10:18 | 43.67722 | -138.60388 | 30084 ft | 493 kts | 282° |
| 2026-05-07 10:19 | 43.69841 | -138.69286 | 30087 ft | 489 kts | 281° |
| 2026-05-07 10:19 | 43.71958 | -138.78214 | 30083 ft | 494 kts | 281° |
| 2026-05-07 10:20 | 43.74089 | -138.87238 | 30079 ft | 492 kts | 281° |
| 2026-05-07 10:20 | 43.76200 | -138.96208 | 30075 ft | 491 kts | 281° |
| 2026-05-07 10:21 | 43.78319 | -139.05263 | 30076 ft | 497 kts | 281° |
| 2026-05-07 10:21 | 43.80422 | -139.14267 | 30075 ft | 495 kts | 281° |
| 2026-05-07 10:22 | 43.82533 | -139.23349 | 30063 ft | 493 kts | 281° |
| 2026-05-07 10:22 | 43.84618 | -139.32358 | 30059 ft | 493 kts | 281° |
| 2026-05-07 10:23 | 43.86695 | -139.41373 | 30060 ft | 492 kts | 281° |
| 2026-05-07 10:23 | 43.88768 | -139.50404 | 30062 ft | 493 kts | 281° |
| 2026-05-07 10:24 | 43.90836 | -139.59447 | 30048 ft | 492 kts | 281° |
| 2026-05-07 10:24 | 43.92884 | -139.68448 | 30040 ft | 492 kts | 280° |
| 2026-05-07 10:25 | 43.94932 | -139.77483 | 30038 ft | 493 kts | 280° |
| 2026-05-07 10:25 | 43.96979 | -139.86549 | 30042 ft | 493 kts | 280° |
| 2026-05-07 10:26 | 43.99005 | -139.95557 | 30034 ft | 490 kts | 280° |
| 2026-05-07 10:26 | 44.01043 | -140.04629 | 30040 ft | 494 kts | 280° |
| 2026-05-07 10:27 | 44.03085 | -140.13721 | 30036 ft | 493 kts | 280° |
| 2026-05-07 10:27 | 44.05125 | -140.22844 | 30035 ft | 494 kts | 280° |
| 2026-05-07 10:28 | 44.07143 | -140.31911 | 30029 ft | 494 kts | 280° |
| 2026-05-07 10:28 | 44.09176 | -140.41087 | 30025 ft | 501 kts | 280° |
| 2026-05-07 10:29 | 44.11208 | -140.50287 | 29990 ft | 497 kts | 280° |
| 2026-05-07 10:29 | 44.13238 | -140.59523 | 29986 ft | 499 kts | 280° |
| 2026-05-07 10:30 | 44.16267 | -140.73377 | 29985 ft | 503 kts | 279° |
| 2026-05-07 10:30 | 44.18290 | -140.82677 | 29976 ft | 501 kts | 279° |
| 2026-05-07 10:31 | 44.20305 | -140.91986 | 29966 ft | 504 kts | 279° |
| 2026-05-07 10:31 | 44.22314 | -141.01309 | 29977 ft | 504 kts | 279° |
| 2026-05-07 10:32 | 44.24314 | -141.10631 | 29968 ft | 504 kts | 279° |
| 2026-05-07 10:32 | 44.26315 | -141.19998 | 29960 ft | 505 kts | 280° |
| 2026-05-07 10:33 | 44.28308 | -141.29379 | 29964 ft | 509 kts | 280° |
| 2026-05-07 10:33 | 44.30307 | -141.38814 | 29953 ft | 506 kts | 280° |
| 2026-05-07 10:34 | 44.32293 | -141.48247 | 29940 ft | 509 kts | 280° |
| 2026-05-07 10:34 | 44.34276 | -141.57703 | 29935 ft | 510 kts | 280° |
| 2026-05-07 10:35 | 44.36254 | -141.67174 | 29940 ft | 508 kts | 280° |
| 2026-05-07 10:35 | 44.38224 | -141.76654 | 29938 ft | 509 kts | 280° |
| 2026-05-07 10:36 | 44.40192 | -141.86171 | 29934 ft | 511 kts | 280° |
| 2026-05-07 10:36 | 44.42154 | -141.95703 | 29924 ft | 511 kts | 280° |
| 2026-05-07 10:37 | 44.44098 | -142.05188 | 29912 ft | 513 kts | 280° |
| 2026-05-07 10:37 | 44.46052 | -142.14771 | 29909 ft | 513 kts | 280° |
| 2026-05-07 10:38 | 44.47993 | -142.24336 | 29911 ft | 513 kts | 281° |
| 2026-05-07 10:38 | 44.49935 | -142.33946 | 29897 ft | 512 kts | 280° |
| 2026-05-07 10:39 | 44.51863 | -142.43545 | 29901 ft | 515 kts | 281° |
| 2026-05-07 10:39 | 44.53788 | -142.53166 | 29887 ft | 513 kts | 281° |
| 2026-05-07 10:40 | 44.55700 | -142.62769 | 29880 ft | 514 kts | 281° |
| 2026-05-07 10:40 | 44.57603 | -142.72377 | 29875 ft | 514 kts | 280° |
| 2026-05-07 10:41 | 44.59510 | -142.82051 | 29875 ft | 514 kts | 280° |
| 2026-05-07 10:41 | 44.61407 | -142.91722 | 29868 ft | 513 kts | 280° |
| 2026-05-07 10:42 | 44.63296 | -143.01405 | 29859 ft | 517 kts | 280° |
| 2026-05-07 10:42 | 44.65172 | -143.11061 | 29852 ft | 517 kts | 280° |
| 2026-05-07 10:43 | 44.67048 | -143.20769 | 29861 ft | 515 kts | 280° |
| 2026-05-07 10:43 | 44.68919 | -143.30499 | 29844 ft | 517 kts | 281° |
| 2026-05-07 10:44 | 44.70780 | -143.40228 | 29842 ft | 517 kts | 280° |
| 2026-05-07 10:44 | 44.72631 | -143.49954 | 29844 ft | 516 kts | 281° |
| 2026-05-07 10:45 | 44.74480 | -143.59720 | 29833 ft | 519 kts | 281° |
| 2026-05-07 10:45 | 44.76323 | -143.69501 | 29828 ft | 518 kts | 280° |
| 2026-05-07 10:46 | 44.78157 | -143.79289 | 29825 ft | 519 kts | 280° |
| 2026-05-07 10:46 | 44.79984 | -143.89085 | 29821 ft | 517 kts | 280° |
| 2026-05-07 10:47 | 44.81791 | -143.98833 | 29815 ft | 521 kts | 280° |
| 2026-05-07 10:47 | 44.83608 | -144.08678 | 29810 ft | 521 kts | 280° |
| 2026-05-07 10:48 | 44.85416 | -144.18536 | 29813 ft | 521 kts | 280° |
| 2026-05-07 10:48 | 44.87219 | -144.28410 | 29797 ft | 521 kts | 280° |
| 2026-05-07 10:49 | 44.89009 | -144.38264 | 29796 ft | 520 kts | 280° |
| 2026-05-07 10:49 | 44.90791 | -144.48137 | 29795 ft | 520 kts | 280° |
| 2026-05-07 10:50 | 44.92566 | -144.58020 | 29787 ft | 523 kts | 280° |
| 2026-05-07 10:50 | 44.94346 | -144.67984 | 29781 ft | 521 kts | 279° |
| 2026-05-07 10:51 | 44.96103 | -144.77873 | 29772 ft | 523 kts | 279° |
| 2026-05-07 10:51 | 44.97860 | -144.87819 | 29771 ft | 526 kts | 279° |
| 2026-05-07 10:52 | 44.99616 | -144.97807 | 29767 ft | 523 kts | 279° |
| 2026-05-07 10:52 | 45.01591 | -145.07593 | 29767 ft | 526 kts | 283° |
| 2026-05-07 10:53 | 45.03846 | -145.17424 | 29753 ft | 526 kts | 283° |
| 2026-05-07 10:53 | 45.06065 | -145.27219 | 29742 ft | 524 kts | 283° |
| 2026-05-07 10:54 | 45.08274 | -145.37083 | 29744 ft | 526 kts | 283° |
| 2026-05-07 10:54 | 45.10466 | -145.46945 | 29728 ft | 527 kts | 283° |
| 2026-05-07 10:55 | 45.12643 | -145.56810 | 29717 ft | 527 kts | 283° |
| 2026-05-07 10:55 | 45.14815 | -145.66699 | 29727 ft | 525 kts | 282° |
| 2026-05-07 10:56 | 45.16970 | -145.76570 | 29708 ft | 528 kts | 282° |
| 2026-05-07 10:56 | 45.19119 | -145.86462 | 29709 ft | 525 kts | 282° |
| 2026-05-07 10:57 | 45.21256 | -145.96347 | 29704 ft | 527 kts | 282° |
| 2026-05-07 10:57 | 45.23386 | -146.06250 | 29698 ft | 527 kts | 282° |
| 2026-05-07 10:58 | 45.25518 | -146.16208 | 29704 ft | 528 kts | 282° |
| 2026-05-07 10:58 | 45.27632 | -146.26131 | 29698 ft | 526 kts | 282° |
| 2026-05-07 10:59 | 45.29742 | -146.36087 | 29715 ft | 527 kts | 282° |
| 2026-05-07 10:59 | 45.31843 | -146.46040 | 29712 ft | 528 kts | 282° |
| 2026-05-07 11:00 | 45.33935 | -146.55998 | 29708 ft | 526 kts | 282° |
| 2026-05-07 11:00 | 45.36014 | -146.65956 | 29704 ft | 530 kts | 281° |
| 2026-05-07 11:01 | 45.38094 | -146.75955 | 29691 ft | 527 kts | 281° |
| 2026-05-07 11:01 | 45.40159 | -146.85938 | 29688 ft | 530 kts | 281° |
| 2026-05-07 11:02 | 45.42219 | -146.95943 | 29694 ft | 527 kts | 282° |
| 2026-05-07 11:02 | 45.44266 | -147.05936 | 29668 ft | 527 kts | 281° |
| 2026-05-07 11:03 | 45.46302 | -147.15927 | 29656 ft | 526 kts | 282° |
| 2026-05-07 11:03 | 45.48332 | -147.25937 | 29685 ft | 527 kts | 282° |
| 2026-05-07 11:04 | 45.50355 | -147.35956 | 29674 ft | 527 kts | 281° |
| 2026-05-07 11:04 | 45.52368 | -147.45984 | 29664 ft | 528 kts | 282° |
| 2026-05-07 11:05 | 45.54372 | -147.56017 | 29668 ft | 529 kts | 282° |
| 2026-05-07 11:05 | 45.56376 | -147.66103 | 29670 ft | 532 kts | 281° |
| 2026-05-07 11:06 | 45.58367 | -147.76164 | 29666 ft | 525 kts | 281° |
| 2026-05-07 11:06 | 45.60347 | -147.86238 | 29659 ft | 530 kts | 281° |
| 2026-05-07 11:07 | 45.62306 | -147.96246 | 29671 ft | 527 kts | 281° |
| 2026-05-07 11:07 | 45.64272 | -148.06352 | 29662 ft | 529 kts | 281° |
| 2026-05-07 11:08 | 45.66224 | -148.16432 | 29664 ft | 531 kts | 281° |
| 2026-05-07 11:08 | 45.68180 | -148.26578 | 29667 ft | 528 kts | 281° |
| 2026-05-07 11:09 | 45.70118 | -148.36693 | 29651 ft | 529 kts | 281° |
| 2026-05-07 11:09 | 45.72047 | -148.46815 | 29656 ft | 529 kts | 281° |
| 2026-05-07 11:10 | 45.73967 | -148.56938 | 29659 ft | 527 kts | 281° |
| 2026-05-07 11:10 | 45.75868 | -148.67021 | 29661 ft | 527 kts | 280° |
| 2026-05-07 11:11 | 45.77770 | -148.77159 | 29651 ft | 528 kts | 280° |
| 2026-05-07 11:11 | 45.79642 | -148.87193 | 29665 ft | 528 kts | 280° |
| 2026-05-07 11:12 | 45.81524 | -148.97331 | 29651 ft | 523 kts | 280° |
| 2026-05-07 11:12 | 45.83384 | -149.07413 | 29653 ft | 524 kts | 280° |
| 2026-05-07 11:13 | 45.85234 | -149.17496 | 29647 ft | 529 kts | 280° |
| 2026-05-07 11:13 | 45.87089 | -149.27653 | 29656 ft | 524 kts | 280° |
| 2026-05-07 11:14 | 45.88926 | -149.37773 | 29655 ft | 521 kts | 280° |
| 2026-05-07 11:14 | 45.90736 | -149.47801 | 29665 ft | 525 kts | 280° |
| 2026-05-07 11:15 | 45.92550 | -149.57904 | 29656 ft | 524 kts | 280° |
| 2026-05-07 11:15 | 45.94359 | -149.68036 | 29663 ft | 521 kts | 280° |
| 2026-05-07 11:16 | 45.96146 | -149.78102 | 29662 ft | 523 kts | 279° |
| 2026-05-07 11:16 | 45.97919 | -149.88138 | 29667 ft | 519 kts | 279° |
| 2026-05-07 11:17 | 45.99691 | -149.98235 | 29663 ft | 521 kts | 280° |
| 2026-05-07 11:17 | 46.01842 | -150.08164 | 29670 ft | 527 kts | 287° |
| 2026-05-07 11:18 | 46.04402 | -150.18007 | 29661 ft | 524 kts | 287° |
| 2026-05-07 11:18 | 46.06918 | -150.27856 | 29675 ft | 526 kts | 286° |
| 2026-05-07 11:19 | 46.09404 | -150.37729 | 29669 ft | 525 kts | 286° |
| 2026-05-07 11:19 | 46.11853 | -150.47546 | 29662 ft | 523 kts | 286° |
| 2026-05-07 11:20 | 46.14293 | -150.57400 | 29665 ft | 524 kts | 286° |
| 2026-05-07 11:20 | 46.16731 | -150.67308 | 29668 ft | 524 kts | 285° |
| 2026-05-07 11:21 | 46.19156 | -150.77216 | 29664 ft | 525 kts | 285° |
| 2026-05-07 11:21 | 46.21561 | -150.87096 | 29667 ft | 524 kts | 285° |
| 2026-05-07 11:22 | 46.23972 | -150.97044 | 29658 ft | 522 kts | 285° |
| 2026-05-07 11:22 | 46.26351 | -151.06906 | 29646 ft | 524 kts | 285° |
| 2026-05-07 11:23 | 46.28728 | -151.16800 | 29670 ft | 522 kts | 285° |
| 2026-05-07 11:23 | 46.31112 | -151.26772 | 29667 ft | 523 kts | 285° |
| 2026-05-07 11:24 | 46.33479 | -151.36716 | 29679 ft | 523 kts | 285° |
| 2026-05-07 11:24 | 46.35837 | -151.46672 | 29674 ft | 525 kts | 285° |
| 2026-05-07 11:25 | 46.38187 | -151.56630 | 29679 ft | 523 kts | 285° |
| 2026-05-07 11:25 | 46.40520 | -151.66565 | 29675 ft | 522 kts | 284° |
| 2026-05-07 11:26 | 46.42841 | -151.76495 | 29683 ft | 520 kts | 284° |
| 2026-05-07 11:26 | 46.45160 | -151.86467 | 29679 ft | 523 kts | 284° |
| 2026-05-07 11:27 | 46.47467 | -151.96426 | 29680 ft | 523 kts | 284° |
| 2026-05-07 11:27 | 46.49758 | -152.06364 | 29677 ft | 522 kts | 284° |
| 2026-05-07 11:28 | 46.52058 | -152.16391 | 29676 ft | 522 kts | 284° |
| 2026-05-07 11:28 | 46.54324 | -152.26308 | 29687 ft | 518 kts | 284° |
| 2026-05-07 11:29 | 46.56591 | -152.36285 | 29695 ft | 522 kts | 284° |
| 2026-05-07 11:29 | 46.58849 | -152.46260 | 29700 ft | 522 kts | 284° |
| 2026-05-07 11:30 | 46.61093 | -152.56223 | 29701 ft | 518 kts | 284° |
| 2026-05-07 11:30 | 46.63324 | -152.66176 | 29714 ft | 520 kts | 283° |
| 2026-05-07 11:31 | 46.65554 | -152.76166 | 29709 ft | 517 kts | 283° |
| 2026-05-07 11:31 | 46.67761 | -152.86108 | 29711 ft | 517 kts | 283° |
| 2026-05-07 11:32 | 46.71033 | -153.00929 | 29723 ft | 515 kts | 283° |
| 2026-05-07 11:33 | 46.73221 | -153.10902 | 29718 ft | 517 kts | 283° |
| 2026-05-07 11:33 | 46.75394 | -153.20845 | 29722 ft | 515 kts | 283° |
| 2026-05-07 11:34 | 46.77557 | -153.30800 | 29729 ft | 516 kts | 283° |
| 2026-05-07 11:34 | 46.79707 | -153.40736 | 29746 ft | 515 kts | 283° |
| 2026-05-07 11:35 | 46.81857 | -153.50723 | 29742 ft | 516 kts | 283° |
| 2026-05-07 11:35 | 46.83981 | -153.60634 | 29751 ft | 514 kts | 283° |
| 2026-05-07 11:36 | 46.86105 | -153.70593 | 29749 ft | 512 kts | 282° |
| 2026-05-07 11:36 | 46.88213 | -153.80533 | 29753 ft | 515 kts | 282° |
| 2026-05-07 11:37 | 46.90319 | -153.90505 | 29754 ft | 515 kts | 282° |
| 2026-05-07 11:37 | 46.92415 | -154.00479 | 29760 ft | 513 kts | 282° |
| 2026-05-07 11:38 | 46.94497 | -154.10435 | 29767 ft | 512 kts | 282° |
| 2026-05-07 11:38 | 46.96555 | -154.20325 | 29769 ft | 510 kts | 282° |
| 2026-05-07 11:39 | 46.98610 | -154.30252 | 29772 ft | 511 kts | 282° |
| 2026-05-07 11:39 | 47.00657 | -154.40184 | 29778 ft | 509 kts | 282° |
| 2026-05-07 11:40 | 47.02690 | -154.50107 | 29780 ft | 509 kts | 282° |
| 2026-05-07 11:40 | 47.04713 | -154.60019 | 29782 ft | 507 kts | 282° |
| 2026-05-07 11:41 | 47.06717 | -154.69894 | 29783 ft | 506 kts | 281° |
| 2026-05-07 11:41 | 47.08704 | -154.79735 | 29786 ft | 505 kts | 281° |
| 2026-05-07 11:42 | 47.10686 | -154.89600 | 29780 ft | 504 kts | 281° |
| 2026-05-07 11:42 | 47.12659 | -154.99463 | 29780 ft | 503 kts | 281° |
| 2026-05-07 11:43 | 47.14613 | -155.09282 | 29782 ft | 501 kts | 282° |
| 2026-05-07 11:43 | 47.16551 | -155.19078 | 29796 ft | 499 kts | 282° |
| 2026-05-07 11:44 | 47.18470 | -155.28816 | 29806 ft | 497 kts | 282° |
| 2026-05-07 11:44 | 47.20379 | -155.38559 | 29792 ft | 495 kts | 282° |
| 2026-05-07 11:45 | 47.22255 | -155.48184 | 29794 ft | 492 kts | 283° |
| 2026-05-07 11:45 | 47.24125 | -155.57823 | 29791 ft | 490 kts | 283° |
| 2026-05-07 11:46 | 47.25981 | -155.67439 | 29799 ft | 490 kts | 283° |
| 2026-05-07 11:46 | 47.27825 | -155.77040 | 29797 ft | 488 kts | 283° |
| 2026-05-07 11:47 | 47.29659 | -155.86636 | 29805 ft | 488 kts | 283° |
| 2026-05-07 11:47 | 47.31481 | -155.96223 | 29793 ft | 487 kts | 284° |
| 2026-05-07 11:48 | 47.33292 | -156.05798 | 29810 ft | 485 kts | 284° |
| 2026-05-07 11:48 | 47.35090 | -156.15352 | 29807 ft | 485 kts | 284° |
| 2026-05-07 11:49 | 47.36879 | -156.24904 | 29819 ft | 485 kts | 284° |
| 2026-05-07 11:49 | 47.38658 | -156.34457 | 29804 ft | 485 kts | 284° |
| 2026-05-07 11:50 | 47.40438 | -156.44061 | 29818 ft | 487 kts | 284° |
| 2026-05-07 11:50 | 47.42211 | -156.53677 | 29822 ft | 488 kts | 284° |
| 2026-05-07 11:51 | 47.43982 | -156.63332 | 29818 ft | 488 kts | 284° |
| 2026-05-07 11:51 | 47.45742 | -156.72980 | 29819 ft | 486 kts | 284° |
| 2026-05-07 11:52 | 47.47492 | -156.82619 | 29821 ft | 487 kts | 284° |
| 2026-05-07 11:52 | 47.49234 | -156.92274 | 29819 ft | 487 kts | 284° |
| 2026-05-07 11:53 | 47.50973 | -157.01956 | 29821 ft | 487 kts | 284° |
| 2026-05-07 11:53 | 47.52700 | -157.11626 | 29827 ft | 487 kts | 284° |
| 2026-05-07 11:54 | 47.54407 | -157.21233 | 29823 ft | 488 kts | 284° |
| 2026-05-07 11:54 | 47.56119 | -157.30925 | 29822 ft | 487 kts | 284° |
| 2026-05-07 11:55 | 47.57836 | -157.40692 | 29824 ft | 488 kts | 284° |
| 2026-05-07 11:55 | 47.59531 | -157.50394 | 29825 ft | 488 kts | 284° |
| 2026-05-07 11:56 | 47.61219 | -157.60103 | 29827 ft | 488 kts | 284° |
| 2026-05-07 11:56 | 47.62890 | -157.69769 | 29829 ft | 488 kts | 283° |
| 2026-05-07 11:57 | 47.64564 | -157.79507 | 29836 ft | 488 kts | 283° |
| 2026-05-07 11:57 | 47.66233 | -157.89275 | 29837 ft | 490 kts | 283° |
| 2026-05-07 11:58 | 47.67893 | -157.99037 | 29836 ft | 489 kts | 283° |
| 2026-05-07 11:58 | 47.69549 | -158.08833 | 29840 ft | 489 kts | 283° |
| 2026-05-07 11:59 | 47.71194 | -158.18619 | 29840 ft | 489 kts | 283° |
| 2026-05-07 11:59 | 47.72825 | -158.28378 | 29838 ft | 490 kts | 283° |
| 2026-05-07 12:00 | 47.74453 | -158.38174 | 29840 ft | 490 kts | 283° |
| 2026-05-07 12:00 | 47.76076 | -158.47996 | 29842 ft | 490 kts | 283° |
| 2026-05-07 12:01 | 47.77688 | -158.57811 | 29839 ft | 491 kts | 283° |
| 2026-05-07 12:01 | 47.79296 | -158.67656 | 29831 ft | 491 kts | 282° |
| 2026-05-07 12:02 | 47.80898 | -158.77528 | 29837 ft | 490 kts | 282° |
| 2026-05-07 12:02 | 47.82488 | -158.87376 | 29844 ft | 490 kts | 282° |
| 2026-05-07 12:03 | 47.84066 | -158.97212 | 29835 ft | 489 kts | 282° |
| 2026-05-07 12:03 | 47.85635 | -159.07051 | 29837 ft | 490 kts | 282° |
| 2026-05-07 12:04 | 47.87197 | -159.16901 | 29838 ft | 490 kts | 282° |
| 2026-05-07 12:04 | 47.88750 | -159.26755 | 29836 ft | 490 kts | 282° |
| 2026-05-07 12:05 | 47.90295 | -159.36623 | 29825 ft | 490 kts | 282° |
| 2026-05-07 12:05 | 47.91833 | -159.46498 | 29831 ft | 491 kts | 282° |
| 2026-05-07 12:06 | 47.93366 | -159.56406 | 29822 ft | 491 kts | 282° |
| 2026-05-07 12:06 | 47.94887 | -159.66296 | 29833 ft | 492 kts | 281° |
| 2026-05-07 12:07 | 47.96401 | -159.76199 | 29840 ft | 491 kts | 281° |
| 2026-05-07 12:07 | 47.97906 | -159.86110 | 29825 ft | 491 kts | 281° |
| 2026-05-07 12:08 | 47.99395 | -159.95978 | 29825 ft | 491 kts | 281° |
| 2026-05-07 12:08 | 48.01129 | -160.05843 | 29829 ft | 494 kts | 290° |
| 2026-05-07 12:09 | 48.03661 | -160.15376 | 29832 ft | 494 kts | 290° |
| 2026-05-07 12:09 | 48.06148 | -160.24915 | 29826 ft | 493 kts | 290° |
| 2026-05-07 12:10 | 48.08585 | -160.34471 | 29817 ft | 493 kts | 289° |
| 2026-05-07 12:10 | 48.10997 | -160.44070 | 29808 ft | 493 kts | 289° |
| 2026-05-07 12:11 | 48.13388 | -160.53677 | 29812 ft | 494 kts | 289° |
| 2026-05-07 12:11 | 48.15755 | -160.63258 | 29801 ft | 493 kts | 289° |
| 2026-05-07 12:12 | 48.18121 | -160.72893 | 29793 ft | 493 kts | 288° |
| 2026-05-07 12:12 | 48.20476 | -160.82530 | 29802 ft | 493 kts | 288° |
| 2026-05-07 12:13 | 48.22831 | -160.92213 | 29793 ft | 494 kts | 288° |
| 2026-05-07 12:13 | 48.25170 | -161.01877 | 29791 ft | 493 kts | 289° |
| 2026-05-07 12:14 | 48.27494 | -161.11520 | 29793 ft | 496 kts | 288° |
| 2026-05-07 12:14 | 48.29839 | -161.21297 | 29786 ft | 496 kts | 289° |
| 2026-05-07 12:15 | 48.32148 | -161.30965 | 29791 ft | 497 kts | 289° |
| 2026-05-07 12:15 | 48.34471 | -161.40736 | 29787 ft | 496 kts | 289° |
| 2026-05-07 12:16 | 48.36783 | -161.50503 | 29785 ft | 498 kts | 289° |
| 2026-05-07 12:16 | 48.39093 | -161.60309 | 29783 ft | 499 kts | 289° |
| 2026-05-07 12:17 | 48.41387 | -161.70085 | 29784 ft | 498 kts | 288° |
| 2026-05-07 12:17 | 48.43679 | -161.79901 | 29783 ft | 499 kts | 288° |
| 2026-05-07 12:18 | 48.45967 | -161.89746 | 29781 ft | 500 kts | 288° |
| 2026-05-07 12:18 | 48.48249 | -161.99611 | 29779 ft | 500 kts | 288° |
| 2026-05-07 12:19 | 48.50521 | -162.09471 | 29780 ft | 499 kts | 288° |
| 2026-05-07 12:19 | 48.52782 | -162.19336 | 29776 ft | 499 kts | 289° |
| 2026-05-07 12:20 | 48.55041 | -162.29236 | 29776 ft | 499 kts | 289° |
| 2026-05-07 12:20 | 48.57292 | -162.39145 | 29772 ft | 502 kts | 289° |
| 2026-05-07 12:21 | 48.59539 | -162.49083 | 29774 ft | 499 kts | 289° |
| 2026-05-07 12:21 | 48.61766 | -162.58978 | 29773 ft | 501 kts | 289° |
| 2026-05-07 12:22 | 48.63984 | -162.68886 | 29775 ft | 498 kts | 288° |
| 2026-05-07 12:22 | 48.66201 | -162.78828 | 29762 ft | 501 kts | 288° |
| 2026-05-07 12:23 | 48.68412 | -162.88794 | 29762 ft | 500 kts | 288° |
| 2026-05-07 12:23 | 48.70612 | -162.98761 | 29763 ft | 500 kts | 288° |
| 2026-05-07 12:24 | 48.72803 | -163.08734 | 29775 ft | 501 kts | 289° |
| 2026-05-07 12:24 | 48.74985 | -163.18707 | 29758 ft | 498 kts | 288° |
| 2026-05-07 12:25 | 48.77156 | -163.28682 | 29769 ft | 499 kts | 288° |
| 2026-05-07 12:25 | 48.79313 | -163.38644 | 29755 ft | 501 kts | 289° |
| 2026-05-07 12:26 | 48.81469 | -163.48647 | 29760 ft | 501 kts | 288° |
| 2026-05-07 12:26 | 48.83615 | -163.58652 | 29746 ft | 499 kts | 288° |
| 2026-05-07 12:27 | 48.85749 | -163.68646 | 29743 ft | 499 kts | 288° |
| 2026-05-07 12:27 | 48.87876 | -163.78664 | 29762 ft | 500 kts | 288° |
| 2026-05-07 12:28 | 48.90004 | -163.88734 | 29748 ft | 501 kts | 288° |
| 2026-05-07 12:28 | 48.92119 | -163.98787 | 29754 ft | 499 kts | 288° |
| 2026-05-07 12:29 | 48.94223 | -164.08847 | 29751 ft | 500 kts | 288° |
| 2026-05-07 12:29 | 48.96308 | -164.18858 | 29743 ft | 502 kts | 288° |
| 2026-05-07 12:30 | 48.98395 | -164.28932 | 29744 ft | 501 kts | 288° |
| 2026-05-07 12:30 | 49.00483 | -164.39062 | 29723 ft | 502 kts | 288° |
| 2026-05-07 12:31 | 49.02568 | -164.49229 | 29739 ft | 503 kts | 288° |
| 2026-05-07 12:31 | 49.04628 | -164.59328 | 29739 ft | 504 kts | 288° |
| 2026-05-07 12:32 | 49.06706 | -164.69568 | 29728 ft | 504 kts | 287° |
| 2026-05-07 12:32 | 49.08767 | -164.79771 | 29729 ft | 505 kts | 287° |
| 2026-05-07 12:33 | 49.11844 | -164.95113 | 29722 ft | 507 kts | 287° |
| 2026-05-07 12:33 | 49.13895 | -165.05400 | 29728 ft | 507 kts | 287° |
| 2026-05-07 12:34 | 49.15934 | -165.15686 | 29720 ft | 508 kts | 287° |
| 2026-05-07 12:34 | 49.17970 | -165.26012 | 29722 ft | 508 kts | 287° |
| 2026-05-07 12:35 | 49.20001 | -165.36365 | 29728 ft | 510 kts | 287° |
| 2026-05-07 12:35 | 49.22022 | -165.46725 | 29734 ft | 510 kts | 288° |
| 2026-05-07 12:36 | 49.24024 | -165.57044 | 29723 ft | 512 kts | 288° |
| 2026-05-07 12:36 | 49.26046 | -165.67523 | 29727 ft | 512 kts | 287° |
| 2026-05-07 12:37 | 49.28051 | -165.77966 | 29726 ft | 512 kts | 287° |
| 2026-05-07 12:37 | 49.30046 | -165.88422 | 29719 ft | 513 kts | 287° |
| 2026-05-07 12:38 | 49.32037 | -165.98910 | 29712 ft | 514 kts | 287° |
| 2026-05-07 12:38 | 49.34018 | -166.09409 | 29718 ft | 515 kts | 287° |
| 2026-05-07 12:39 | 49.35984 | -166.19879 | 29718 ft | 515 kts | 287° |
| 2026-05-07 12:39 | 49.37954 | -166.30438 | 29718 ft | 517 kts | 287° |
| 2026-05-07 12:40 | 49.39917 | -166.41019 | 29717 ft | 516 kts | 287° |
| 2026-05-07 12:40 | 49.41883 | -166.51671 | 29803 ft | 526 kts | 287° |
| 2026-05-07 12:41 | 49.42879 | -166.57091 | 30280 ft | 527 kts | 287° |
| 2026-05-07 12:41 | 49.43854 | -166.62415 | 31005 ft | 522 kts | 287° |
| 2026-05-07 12:41 | 49.44835 | -166.67784 | 31603 ft | 520 kts | 286° |
| 2026-05-07 12:41 | 49.45801 | -166.73090 | 31712 ft | 521 kts | 286° |
| 2026-05-07 12:42 | 49.47747 | -166.83826 | 31706 ft | 520 kts | 286° |
| 2026-05-07 12:42 | 49.49670 | -166.94496 | 31708 ft | 519 kts | 285° |
| 2026-05-07 12:43 | 49.51584 | -167.05179 | 31712 ft | 519 kts | 286° |
| 2026-05-07 12:43 | 49.53495 | -167.15906 | 31709 ft | 521 kts | 286° |
| 2026-05-07 12:44 | 49.55384 | -167.26573 | 31715 ft | 520 kts | 286° |
| 2026-05-07 12:44 | 49.57274 | -167.37314 | 31720 ft | 521 kts | 286° |
| 2026-05-07 12:45 | 49.59159 | -167.48090 | 31714 ft | 522 kts | 285° |
| 2026-05-07 12:45 | 49.61022 | -167.58804 | 31719 ft | 522 kts | 285° |
| 2026-05-07 12:46 | 49.62889 | -167.69604 | 31712 ft | 523 kts | 285° |
| 2026-05-07 12:46 | 49.64748 | -167.80429 | 31703 ft | 522 kts | 285° |
| 2026-05-07 12:47 | 49.66597 | -167.91263 | 31707 ft | 523 kts | 285° |
| 2026-05-07 12:47 | 49.68444 | -168.02155 | 31702 ft | 523 kts | 285° |
| 2026-05-07 12:48 | 49.70268 | -168.12976 | 31695 ft | 524 kts | 284° |
| 2026-05-07 12:48 | 49.72089 | -168.23845 | 31694 ft | 524 kts | 285° |
| 2026-05-07 12:49 | 49.73909 | -168.34782 | 31697 ft | 525 kts | 284° |
| 2026-05-07 12:49 | 49.75719 | -168.45723 | 31701 ft | 525 kts | 284° |
| 2026-05-07 12:50 | 49.77511 | -168.56630 | 31710 ft | 526 kts | 284° |
| 2026-05-07 12:50 | 49.79297 | -168.67567 | 31705 ft | 526 kts | 284° |
| 2026-05-07 12:51 | 49.81070 | -168.78502 | 31705 ft | 526 kts | 284° |
| 2026-05-07 12:51 | 49.82841 | -168.89493 | 31699 ft | 526 kts | 283° |
| 2026-05-07 12:52 | 49.84587 | -169.00406 | 31698 ft | 526 kts | 284° |
| 2026-05-07 12:52 | 49.86341 | -169.11435 | 31700 ft | 528 kts | 283° |
| 2026-05-07 12:53 | 49.88090 | -169.22508 | 31704 ft | 527 kts | 283° |
| 2026-05-07 12:53 | 49.89812 | -169.33484 | 31703 ft | 529 kts | 283° |
| 2026-05-07 12:54 | 49.91533 | -169.44531 | 31710 ft | 529 kts | 283° |
| 2026-05-07 12:54 | 49.93249 | -169.55618 | 31707 ft | 529 kts | 283° |
| 2026-05-07 12:55 | 49.94961 | -169.66757 | 31713 ft | 530 kts | 283° |
| 2026-05-07 12:55 | 49.96666 | -169.77925 | 31709 ft | 530 kts | 283° |
| 2026-05-07 12:56 | 49.98356 | -169.89076 | 31695 ft | 530 kts | 283° |
| 2026-05-07 12:56 | 49.99756 | -170.00340 | 31681 ft | 531 kts | 274° |
| 2026-05-07 12:57 | 50.00365 | -170.11673 | 31681 ft | 530 kts | 273° |
| 2026-05-07 12:57 | 50.00899 | -170.23105 | 31674 ft | 531 kts | 272° |
| 2026-05-07 12:58 | 50.01393 | -170.34495 | 31678 ft | 530 kts | 272° |
| 2026-05-07 12:58 | 50.01862 | -170.45866 | 31683 ft | 530 kts | 272° |
| 2026-05-07 12:59 | 50.02313 | -170.57300 | 31695 ft | 529 kts | 272° |
| 2026-05-07 12:59 | 50.02749 | -170.68735 | 31680 ft | 529 kts | 271° |
| 2026-05-07 13:00 | 50.03170 | -170.80139 | 31683 ft | 530 kts | 271° |
| 2026-05-07 13:00 | 50.03583 | -170.91672 | 31679 ft | 529 kts | 271° |
| 2026-05-07 13:01 | 50.03981 | -171.03143 | 31680 ft | 530 kts | 271° |
| 2026-05-07 13:01 | 50.04367 | -171.14584 | 31676 ft | 529 kts | 271° |
| 2026-05-07 13:02 | 50.04740 | -171.26006 | 31672 ft | 530 kts | 271° |
| 2026-05-07 13:02 | 50.05101 | -171.37387 | 31668 ft | 530 kts | 271° |
| 2026-05-07 13:03 | 50.05453 | -171.48833 | 31666 ft | 530 kts | 271° |
| 2026-05-07 13:03 | 50.05793 | -171.60269 | 31673 ft | 530 kts | 271° |
| 2026-05-07 13:04 | 50.06122 | -171.71730 | 31668 ft | 530 kts | 270° |
| 2026-05-07 13:04 | 50.06438 | -171.83138 | 31667 ft | 530 kts | 270° |
| 2026-05-07 13:05 | 50.06746 | -171.94617 | 31670 ft | 530 kts | 270° |
| 2026-05-07 13:05 | 50.07041 | -172.06093 | 31660 ft | 530 kts | 270° |
| 2026-05-07 13:06 | 50.07326 | -172.17625 | 31669 ft | 530 kts | 270° |
| 2026-05-07 13:06 | 50.07599 | -172.29048 | 31667 ft | 529 kts | 270° |
| 2026-05-07 13:07 | 50.07860 | -172.40517 | 31666 ft | 530 kts | 270° |
| 2026-05-07 13:07 | 50.08110 | -172.51968 | 31663 ft | 529 kts | 269° |
| 2026-05-07 13:08 | 50.08347 | -172.63344 | 31662 ft | 530 kts | 270° |
| 2026-05-07 13:08 | 50.08575 | -172.74818 | 31651 ft | 528 kts | 269° |
| 2026-05-07 13:09 | 50.08789 | -172.86180 | 31659 ft | 528 kts | 269° |
| 2026-05-07 13:09 | 50.08993 | -172.97621 | 31668 ft | 529 kts | 269° |
| 2026-05-07 13:10 | 50.09187 | -173.09061 | 31681 ft | 528 kts | 269° |
| 2026-05-07 13:10 | 50.09367 | -173.20407 | 31661 ft | 528 kts | 269° |
| 2026-05-07 13:11 | 50.09538 | -173.31839 | 31672 ft | 525 kts | 269° |
| 2026-05-07 13:11 | 50.09697 | -173.43230 | 31666 ft | 525 kts | 269° |
| 2026-05-07 13:12 | 50.09844 | -173.54568 | 31667 ft | 525 kts | 269° |
| 2026-05-07 13:12 | 50.09980 | -173.65851 | 31671 ft | 524 kts | 268° |
| 2026-05-07 13:13 | 50.10105 | -173.77211 | 31651 ft | 522 kts | 268° |
| 2026-05-07 13:13 | 50.10218 | -173.88480 | 31650 ft | 523 kts | 268° |
| 2026-05-07 13:14 | 50.10321 | -173.99765 | 31661 ft | 523 kts | 268° |
| 2026-05-07 13:14 | 50.10413 | -174.11002 | 31654 ft | 520 kts | 268° |
| 2026-05-07 13:15 | 50.10493 | -174.22238 | 31674 ft | 519 kts | 268° |
| 2026-05-07 13:15 | 50.10562 | -174.33431 | 31675 ft | 519 kts | 268° |
| 2026-05-07 13:16 | 50.10621 | -174.44634 | 31678 ft | 517 kts | 269° |
| 2026-05-07 13:16 | 50.10669 | -174.55835 | 31679 ft | 517 kts | 269° |
| 2026-05-07 13:17 | 50.10706 | -174.67056 | 31672 ft | 514 kts | 268° |
| 2026-05-07 13:17 | 50.10732 | -174.78130 | 31674 ft | 515 kts | 268° |
| 2026-05-07 13:18 | 50.10748 | -174.89220 | 31689 ft | 513 kts | 268° |
| 2026-05-07 13:18 | 50.10753 | -175.00320 | 31692 ft | 513 kts | 268° |
| 2026-05-07 13:19 | 50.10747 | -175.11421 | 31698 ft | 513 kts | 268° |
| 2026-05-07 13:19 | 50.10731 | -175.22433 | 31698 ft | 511 kts | 268° |
| 2026-05-07 13:20 | 50.10704 | -175.33495 | 31700 ft | 511 kts | 268° |
| 2026-05-07 13:20 | 50.10667 | -175.44514 | 31704 ft | 510 kts | 268° |
| 2026-05-07 13:21 | 50.10620 | -175.55502 | 31706 ft | 508 kts | 268° |
| 2026-05-07 13:21 | 50.10563 | -175.66496 | 31708 ft | 508 kts | 267° |
| 2026-05-07 13:22 | 50.10495 | -175.77447 | 31711 ft | 507 kts | 267° |
| 2026-05-07 13:22 | 50.10418 | -175.88327 | 31706 ft | 506 kts | 268° |
| 2026-05-07 13:23 | 50.10329 | -175.99254 | 31715 ft | 506 kts | 268° |
| 2026-05-07 13:23 | 50.10231 | -176.10178 | 31723 ft | 504 kts | 268° |
| 2026-05-07 13:24 | 50.10123 | -176.21039 | 31729 ft | 503 kts | 268° |
| 2026-05-07 13:24 | 50.10006 | -176.31891 | 31728 ft | 501 kts | 268° |
| 2026-05-07 13:25 | 50.09878 | -176.42717 | 31736 ft | 500 kts | 268° |
| 2026-05-07 13:25 | 50.09741 | -176.53481 | 31736 ft | 499 kts | 268° |
| 2026-05-07 13:26 | 50.09593 | -176.64290 | 31750 ft | 499 kts | 268° |
| 2026-05-07 13:26 | 50.09436 | -176.75104 | 31744 ft | 498 kts | 267° |
| 2026-05-07 13:27 | 50.09270 | -176.85771 | 31744 ft | 496 kts | 267° |
| 2026-05-07 13:27 | 50.09095 | -176.96452 | 31761 ft | 494 kts | 267° |
| 2026-05-07 13:28 | 50.08909 | -177.07155 | 31755 ft | 494 kts | 267° |
| 2026-05-07 13:28 | 50.08716 | -177.17737 | 31760 ft | 492 kts | 267° |
| 2026-05-07 13:29 | 50.08512 | -177.28375 | 31751 ft | 492 kts | 267° |
| 2026-05-07 13:29 | 50.08299 | -177.38994 | 31752 ft | 492 kts | 267° |
| 2026-05-07 13:30 | 50.08078 | -177.49503 | 31754 ft | 487 kts | 267° |
| 2026-05-07 13:30 | 50.07848 | -177.60023 | 31760 ft | 488 kts | 267° |
| 2026-05-07 13:31 | 50.07608 | -177.70557 | 31766 ft | 487 kts | 266° |
| 2026-05-07 13:31 | 50.07358 | -177.81081 | 31772 ft | 487 kts | 266° |
| 2026-05-07 13:32 | 50.07101 | -177.91525 | 31784 ft | 485 kts | 266° |
| 2026-05-07 13:32 | 50.06835 | -178.01962 | 31796 ft | 484 kts | 267° |
| 2026-05-07 13:33 | 50.06559 | -178.12413 | 31799 ft | 483 kts | 267° |
| 2026-05-07 13:33 | 50.06276 | -178.22760 | 31805 ft | 483 kts | 267° |
| 2026-05-07 13:34 | 50.05830 | -178.38441 | 31805 ft | 482 kts | 267° |
| 2026-05-07 13:35 | 50.05523 | -178.48837 | 31799 ft | 481 kts | 267° |
| 2026-05-07 13:35 | 50.05207 | -178.59193 | 31811 ft | 479 kts | 267° |
| 2026-05-07 13:36 | 50.04886 | -178.69458 | 31806 ft | 479 kts | 266° |
| 2026-05-07 13:36 | 50.04554 | -178.79764 | 31813 ft | 478 kts | 266° |
| 2026-05-07 13:37 | 50.04213 | -178.90045 | 31818 ft | 477 kts | 266° |
| 2026-05-07 13:37 | 50.03864 | -179.00317 | 31810 ft | 475 kts | 266° |
| 2026-05-07 13:38 | 50.03506 | -179.10568 | 31826 ft | 476 kts | 266° |
| 2026-05-07 13:38 | 50.03142 | -179.20754 | 31822 ft | 474 kts | 266° |
| 2026-05-07 13:39 | 50.02766 | -179.30986 | 31826 ft | 474 kts | 266° |
| 2026-05-07 13:39 | 50.02384 | -179.41182 | 31828 ft | 473 kts | 266° |
| 2026-05-07 13:40 | 50.01993 | -179.51356 | 31829 ft | 470 kts | 266° |
| 2026-05-07 13:40 | 50.01597 | -179.61435 | 31830 ft | 468 kts | 266° |
| 2026-05-07 13:41 | 50.01191 | -179.71521 | 31830 ft | 468 kts | 266° |
| 2026-05-07 13:41 | 50.00778 | -179.81601 | 31840 ft | 468 kts | 266° |
| 2026-05-07 13:42 | 50.00355 | -179.91692 | 31836 ft | 469 kts | 266° |
| 2026-05-07 13:42 | 49.99197 | 179.98349 | 31836 ft | 471 kts | 253° |
| 2026-05-07 13:43 | 49.97071 | 179.88821 | 31843 ft | 469 kts | 251° |
| 2026-05-07 13:43 | 49.94870 | 179.79317 | 31844 ft | 467 kts | 251° |
| 2026-05-07 13:44 | 49.92630 | 179.69891 | 31845 ft | 467 kts | 251° |
| 2026-05-07 13:44 | 49.90356 | 179.60481 | 31847 ft | 465 kts | 251° |
| 2026-05-07 13:45 | 49.88073 | 179.51131 | 31853 ft | 466 kts | 251° |
| 2026-05-07 13:45 | 49.85779 | 179.41805 | 31861 ft | 465 kts | 251° |
| 2026-05-07 13:46 | 49.83488 | 179.32546 | 31860 ft | 466 kts | 250° |
| 2026-05-07 13:46 | 49.81175 | 179.23247 | 31863 ft | 462 kts | 250° |
| 2026-05-07 13:47 | 49.78865 | 179.14003 | 31865 ft | 460 kts | 251° |
| 2026-05-07 13:47 | 49.76554 | 179.04796 | 31865 ft | 459 kts | 251° |
| 2026-05-07 13:48 | 49.74244 | 178.95628 | 31867 ft | 459 kts | 251° |
| 2026-05-07 13:48 | 49.71923 | 178.86461 | 31869 ft | 458 kts | 251° |
| 2026-05-07 13:49 | 49.69606 | 178.77341 | 31866 ft | 458 kts | 251° |
| 2026-05-07 13:49 | 49.67278 | 178.68218 | 31872 ft | 456 kts | 251° |
| 2026-05-07 13:50 | 49.64965 | 178.59189 | 31871 ft | 457 kts | 251° |
| 2026-05-07 13:50 | 49.62635 | 178.50133 | 31873 ft | 454 kts | 251° |
| 2026-05-07 13:51 | 49.60304 | 178.41106 | 31872 ft | 453 kts | 251° |
| 2026-05-07 13:51 | 49.57975 | 178.32121 | 31876 ft | 451 kts | 251° |
| 2026-05-07 13:52 | 49.55644 | 178.23167 | 31882 ft | 450 kts | 251° |
| 2026-05-07 13:52 | 49.53321 | 178.14275 | 31881 ft | 451 kts | 251° |
| 2026-05-07 13:53 | 49.50977 | 178.05342 | 31878 ft | 448 kts | 251° |
| 2026-05-07 13:53 | 49.48639 | 177.96462 | 31874 ft | 446 kts | 252° |
| 2026-05-07 13:54 | 49.46299 | 177.87613 | 31878 ft | 445 kts | 252° |
| 2026-05-07 13:54 | 49.43969 | 177.78828 | 31874 ft | 444 kts | 252° |
| 2026-05-07 13:55 | 49.41640 | 177.70090 | 31874 ft | 443 kts | 252° |
| 2026-05-07 13:55 | 49.39313 | 177.61383 | 31876 ft | 444 kts | 252° |
| 2026-05-07 13:56 | 49.36980 | 177.52695 | 31877 ft | 439 kts | 252° |
| 2026-05-07 13:56 | 49.34644 | 177.44022 | 31874 ft | 439 kts | 253° |
| 2026-05-07 13:57 | 49.32321 | 177.35429 | 31882 ft | 437 kts | 253° |
| 2026-05-07 13:57 | 49.29993 | 177.26851 | 31897 ft | 438 kts | 252° |
| 2026-05-07 13:58 | 49.27657 | 177.18274 | 31900 ft | 435 kts | 252° |
| 2026-05-07 13:58 | 49.25327 | 177.09753 | 31905 ft | 435 kts | 252° |
| 2026-05-07 13:59 | 49.22967 | 177.01154 | 31910 ft | 432 kts | 253° |
| 2026-05-07 13:59 | 49.20642 | 176.92705 | 31900 ft | 433 kts | 253° |
| 2026-05-07 14:00 | 49.18317 | 176.84297 | 31899 ft | 429 kts | 253° |
| 2026-05-07 14:00 | 49.15958 | 176.75794 | 31906 ft | 427 kts | 253° |
| 2026-05-07 14:01 | 49.13650 | 176.67497 | 31901 ft | 427 kts | 253° |
| 2026-05-07 14:01 | 49.11318 | 176.59151 | 31899 ft | 424 kts | 254° |
| 2026-05-07 14:02 | 49.09000 | 176.50879 | 31906 ft | 425 kts | 254° |
| 2026-05-07 14:02 | 49.06683 | 176.42641 | 31899 ft | 424 kts | 254° |
| 2026-05-07 14:03 | 49.04371 | 176.34450 | 31897 ft | 422 kts | 253° |
| 2026-05-07 14:03 | 49.02044 | 176.26234 | 31933 ft | 421 kts | 254° |
| 2026-05-07 14:04 | 48.99715 | 176.18037 | 31923 ft | 422 kts | 253° |
| 2026-05-07 14:04 | 48.97391 | 176.09891 | 31919 ft | 420 kts | 254° |
| 2026-05-07 14:05 | 48.95062 | 176.01750 | 31917 ft | 418 kts | 254° |
| 2026-05-07 14:05 | 48.92743 | 175.93672 | 31934 ft | 416 kts | 254° |
| 2026-05-07 14:06 | 48.90412 | 175.85582 | 31906 ft | 414 kts | 254° |
| 2026-05-07 14:06 | 48.88108 | 175.77609 | 31929 ft | 414 kts | 254° |
| 2026-05-07 14:07 | 48.85794 | 175.69629 | 31907 ft | 413 kts | 255° |
| 2026-05-07 14:07 | 48.83461 | 175.61612 | 31938 ft | 413 kts | 254° |
| 2026-05-07 14:08 | 48.81164 | 175.53743 | 31905 ft | 413 kts | 255° |
| 2026-05-07 14:08 | 48.78840 | 175.45807 | 31917 ft | 411 kts | 255° |
| 2026-05-07 14:09 | 48.76527 | 175.37936 | 31926 ft | 408 kts | 255° |
| 2026-05-07 14:09 | 48.74225 | 175.30125 | 31904 ft | 408 kts | 254° |
| 2026-05-07 14:10 | 48.71896 | 175.22246 | 31911 ft | 409 kts | 254° |
| 2026-05-07 14:10 | 48.69584 | 175.14459 | 31929 ft | 404 kts | 254° |
| 2026-05-07 14:11 | 48.67260 | 175.06644 | 31941 ft | 407 kts | 254° |
| 2026-05-07 14:11 | 48.64946 | 174.98894 | 31930 ft | 406 kts | 254° |
| 2026-05-07 14:12 | 48.62608 | 174.91089 | 31941 ft | 405 kts | 254° |
| 2026-05-07 14:12 | 48.60274 | 174.83322 | 31940 ft | 403 kts | 254° |
| 2026-05-07 14:13 | 48.57970 | 174.75681 | 31937 ft | 402 kts | 255° |
| 2026-05-07 14:13 | 48.55648 | 174.67999 | 31929 ft | 400 kts | 255° |
| 2026-05-07 14:14 | 48.53337 | 174.60379 | 31937 ft | 400 kts | 255° |
| 2026-05-07 14:14 | 48.51008 | 174.52721 | 31934 ft | 401 kts | 254° |
| 2026-05-07 14:15 | 48.48678 | 174.45087 | 31930 ft | 398 kts | 255° |
| 2026-05-07 14:15 | 48.46353 | 174.37492 | 31932 ft | 397 kts | 255° |
| 2026-05-07 14:16 | 48.44020 | 174.29890 | 31949 ft | 400 kts | 254° |
| 2026-05-07 14:16 | 48.41682 | 174.22304 | 31954 ft | 397 kts | 254° |
| 2026-05-07 14:17 | 48.39348 | 174.14748 | 31949 ft | 397 kts | 254° |
| 2026-05-07 14:17 | 48.37014 | 174.07214 | 31955 ft | 396 kts | 254° |
| 2026-05-07 14:18 | 48.34666 | 173.99660 | 31950 ft | 397 kts | 255° |
| 2026-05-07 14:18 | 48.32322 | 173.92139 | 31951 ft | 398 kts | 254° |
| 2026-05-07 14:19 | 48.29962 | 173.84595 | 31948 ft | 396 kts | 254° |
| 2026-05-07 14:19 | 48.27606 | 173.77081 | 31955 ft | 397 kts | 254° |
| 2026-05-07 14:20 | 48.25257 | 173.69611 | 31958 ft | 397 kts | 254° |
| 2026-05-07 14:20 | 48.22916 | 173.62192 | 31955 ft | 397 kts | 255° |
| 2026-05-07 14:21 | 48.20548 | 173.54713 | 31966 ft | 394 kts | 255° |
| 2026-05-07 14:21 | 48.18205 | 173.47328 | 31971 ft | 394 kts | 254° |
| 2026-05-07 14:22 | 48.15838 | 173.39893 | 31969 ft | 394 kts | 254° |
| 2026-05-07 14:22 | 48.13479 | 173.32497 | 31987 ft | 398 kts | 253° |
| 2026-05-07 14:23 | 48.11097 | 173.25064 | 31985 ft | 394 kts | 254° |
| 2026-05-07 14:23 | 48.08720 | 173.17664 | 31983 ft | 394 kts | 253° |
| 2026-05-07 14:24 | 48.06352 | 173.10304 | 31989 ft | 398 kts | 253° |
| 2026-05-07 14:24 | 48.03952 | 173.02875 | 31987 ft | 397 kts | 253° |
| 2026-05-07 14:25 | 48.01556 | 172.95482 | 31981 ft | 396 kts | 253° |
| 2026-05-07 14:25 | 47.99160 | 172.88106 | 31991 ft | 396 kts | 254° |
| 2026-05-07 14:26 | 47.96746 | 172.80698 | 31982 ft | 395 kts | 254° |
| 2026-05-07 14:26 | 47.94347 | 172.73355 | 31984 ft | 395 kts | 253° |
| 2026-05-07 14:27 | 47.91944 | 172.66023 | 31981 ft | 396 kts | 254° |
| 2026-05-07 14:27 | 47.89528 | 172.58673 | 31972 ft | 395 kts | 254° |
| 2026-05-07 14:28 | 47.87136 | 172.51416 | 31960 ft | 395 kts | 254° |
| 2026-05-07 14:28 | 47.84700 | 172.44049 | 31955 ft | 392 kts | 255° |
| 2026-05-07 14:29 | 47.82270 | 172.36716 | 31954 ft | 394 kts | 254° |
| 2026-05-07 14:29 | 47.79844 | 172.29417 | 31973 ft | 395 kts | 254° |
| 2026-05-07 14:30 | 47.77396 | 172.22076 | 31970 ft | 393 kts | 254° |
| 2026-05-07 14:30 | 47.74968 | 172.14815 | 31972 ft | 393 kts | 254° |
| 2026-05-07 14:31 | 47.72526 | 172.07530 | 31971 ft | 394 kts | 254° |
| 2026-05-07 14:31 | 47.70088 | 172.00278 | 31967 ft | 394 kts | 253° |
| 2026-05-07 14:32 | 47.67641 | 171.93021 | 31970 ft | 396 kts | 254° |
| 2026-05-07 14:32 | 47.65189 | 171.85771 | 31967 ft | 392 kts | 254° |
| 2026-05-07 14:33 | 47.62724 | 171.78502 | 31965 ft | 392 kts | 253° |
| 2026-05-07 14:33 | 47.60267 | 171.71271 | 31965 ft | 396 kts | 254° |
| 2026-05-07 14:34 | 47.57795 | 171.64024 | 31965 ft | 392 kts | 254° |
| 2026-05-07 14:34 | 47.55339 | 171.56841 | 31966 ft | 395 kts | 254° |
| 2026-05-07 14:35 | 47.52853 | 171.49589 | 31963 ft | 394 kts | 253° |
| 2026-05-07 14:35 | 47.50383 | 171.42409 | 31965 ft | 392 kts | 253° |
| 2026-05-07 14:36 | 47.47876 | 171.35129 | 31969 ft | 395 kts | 253° |
| 2026-05-07 14:36 | 47.45377 | 171.27907 | 31986 ft | 394 kts | 253° |
| 2026-05-07 14:37 | 47.42877 | 171.20692 | 31994 ft | 396 kts | 252° |
| 2026-05-07 14:37 | 47.39112 | 171.09874 | 31991 ft | 395 kts | 253° |
| 2026-05-07 14:38 | 47.36597 | 171.02667 | 31994 ft | 395 kts | 252° |
| 2026-05-07 14:38 | 47.34070 | 170.95448 | 31996 ft | 396 kts | 252° |
| 2026-05-07 14:39 | 47.31535 | 170.88223 | 31994 ft | 397 kts | 252° |
| 2026-05-07 14:39 | 47.29007 | 170.81049 | 31984 ft | 395 kts | 253° |
| 2026-05-07 14:40 | 47.26454 | 170.73807 | 31994 ft | 398 kts | 252° |
| 2026-05-07 14:40 | 47.23906 | 170.66609 | 31990 ft | 398 kts | 252° |
| 2026-05-07 14:41 | 47.21342 | 170.59384 | 31990 ft | 397 kts | 252° |
| 2026-05-07 14:41 | 47.18785 | 170.52203 | 31990 ft | 396 kts | 252° |
| 2026-05-07 14:42 | 47.16216 | 170.44998 | 31986 ft | 398 kts | 252° |
| 2026-05-07 14:42 | 47.13649 | 170.37823 | 31988 ft | 400 kts | 252° |
| 2026-05-07 14:43 | 47.11074 | 170.30647 | 32009 ft | 398 kts | 251° |
| 2026-05-07 14:43 | 47.08464 | 170.23390 | 32015 ft | 400 kts | 251° |
| 2026-05-07 14:44 | 47.05871 | 170.16206 | 32009 ft | 398 kts | 251° |
| 2026-05-07 14:44 | 47.03278 | 170.09035 | 32012 ft | 398 kts | 251° |
| 2026-05-07 14:45 | 47.00661 | 170.01820 | 32016 ft | 399 kts | 251° |
| 2026-05-07 14:45 | 46.98218 | 169.94620 | 32002 ft | 397 kts | 252° |
| 2026-05-07 14:46 | 46.95793 | 169.87317 | 31986 ft | 399 kts | 253° |
| 2026-05-07 14:46 | 46.93356 | 169.80000 | 31984 ft | 399 kts | 253° |
| 2026-05-07 14:47 | 46.90929 | 169.72734 | 31994 ft | 401 kts | 252° |
| 2026-05-07 14:47 | 46.88483 | 169.65431 | 31981 ft | 401 kts | 252° |
| 2026-05-07 14:48 | 46.86047 | 169.58180 | 31982 ft | 400 kts | 252° |
| 2026-05-07 14:48 | 46.83595 | 169.50899 | 31983 ft | 402 kts | 252° |
| 2026-05-07 14:49 | 46.81121 | 169.43574 | 31980 ft | 403 kts | 253° |
| 2026-05-07 14:49 | 46.78658 | 169.36305 | 31985 ft | 402 kts | 252° |
| 2026-05-07 14:50 | 46.76160 | 169.28947 | 32004 ft | 404 kts | 252° |
| 2026-05-07 14:50 | 46.73660 | 169.21609 | 31998 ft | 404 kts | 252° |
| 2026-05-07 14:51 | 46.71159 | 169.14287 | 31995 ft | 403 kts | 252° |
| 2026-05-07 14:51 | 46.68646 | 169.06949 | 32005 ft | 404 kts | 252° |
| 2026-05-07 14:52 | 46.66122 | 168.99602 | 32003 ft | 405 kts | 252° |
| 2026-05-07 14:52 | 46.63594 | 168.92264 | 32005 ft | 406 kts | 252° |
| 2026-05-07 14:53 | 46.61062 | 168.84933 | 31998 ft | 404 kts | 252° |
| 2026-05-07 14:53 | 46.58525 | 168.77608 | 31990 ft | 407 kts | 251° |
| 2026-05-07 14:54 | 46.56000 | 168.70342 | 31981 ft | 405 kts | 252° |
| 2026-05-07 14:54 | 46.53455 | 168.63029 | 31993 ft | 406 kts | 252° |
| 2026-05-07 14:55 | 46.50898 | 168.55707 | 31990 ft | 407 kts | 251° |
| 2026-05-07 14:55 | 46.48341 | 168.48408 | 31989 ft | 407 kts | 251° |
| 2026-05-07 14:56 | 46.45772 | 168.41093 | 31989 ft | 406 kts | 251° |
| 2026-05-07 14:56 | 46.43196 | 168.33778 | 31998 ft | 407 kts | 251° |
| 2026-05-07 14:57 | 46.40628 | 168.26506 | 32002 ft | 410 kts | 251° |
| 2026-05-07 14:57 | 46.38032 | 168.19176 | 32006 ft | 408 kts | 251° |
| 2026-05-07 14:58 | 46.35435 | 168.11856 | 32000 ft | 410 kts | 250° |
| 2026-05-07 14:58 | 46.32822 | 168.04521 | 32001 ft | 411 kts | 251° |
| 2026-05-07 14:59 | 46.30225 | 167.97250 | 31992 ft | 408 kts | 250° |
| 2026-05-07 14:59 | 46.27601 | 167.89917 | 31999 ft | 410 kts | 250° |
| 2026-05-07 15:00 | 46.24994 | 167.82654 | 32005 ft | 412 kts | 250° |
| 2026-05-07 15:00 | 46.22351 | 167.75313 | 31984 ft | 409 kts | 250° |
| 2026-05-07 15:01 | 46.19714 | 167.68007 | 31985 ft | 409 kts | 251° |
| 2026-05-07 15:01 | 46.17059 | 167.60672 | 31985 ft | 412 kts | 250° |
| 2026-05-07 15:02 | 46.14430 | 167.53427 | 31982 ft | 412 kts | 250° |
| 2026-05-07 15:02 | 46.11772 | 167.46126 | 31991 ft | 409 kts | 251° |
| 2026-05-07 15:03 | 46.09131 | 167.38890 | 32002 ft | 406 kts | 250° |
| 2026-05-07 15:03 | 46.06493 | 167.31673 | 32022 ft | 413 kts | 250° |
| 2026-05-07 15:04 | 46.03822 | 167.24394 | 32015 ft | 410 kts | 250° |
| 2026-05-07 15:04 | 46.01158 | 167.17156 | 32011 ft | 408 kts | 250° |
| 2026-05-07 15:05 | 45.98483 | 167.09897 | 32021 ft | 413 kts | 249° |
| 2026-05-07 15:05 | 45.95815 | 167.02687 | 32008 ft | 407 kts | 250° |
| 2026-05-07 15:06 | 45.93148 | 166.95496 | 32013 ft | 408 kts | 249° |
| 2026-05-07 15:06 | 45.90482 | 166.88319 | 32026 ft | 412 kts | 250° |
| 2026-05-07 15:07 | 45.87791 | 166.81100 | 32002 ft | 412 kts | 249° |
| 2026-05-07 15:07 | 45.85099 | 166.73901 | 31989 ft | 409 kts | 249° |
| 2026-05-07 15:08 | 45.82387 | 166.66656 | 32000 ft | 413 kts | 249° |
| 2026-05-07 15:08 | 45.79679 | 166.59456 | 31992 ft | 412 kts | 250° |
| 2026-05-07 15:09 | 45.76968 | 166.52260 | 31986 ft | 409 kts | 249° |
| 2026-05-07 15:09 | 45.74255 | 166.45073 | 31992 ft | 413 kts | 250° |
| 2026-05-07 15:10 | 45.71536 | 166.37898 | 31991 ft | 414 kts | 249° |
| 2026-05-07 15:10 | 45.68797 | 166.30685 | 31998 ft | 414 kts | 249° |
| 2026-05-07 15:11 | 45.66051 | 166.23473 | 32000 ft | 411 kts | 248° |
| 2026-05-07 15:11 | 45.63297 | 166.16255 | 31985 ft | 416 kts | 248° |
| 2026-05-07 15:12 | 45.60532 | 166.09035 | 31985 ft | 413 kts | 248° |
| 2026-05-07 15:12 | 45.57790 | 166.01888 | 31986 ft | 412 kts | 248° |
| 2026-05-07 15:13 | 45.55019 | 165.94682 | 31997 ft | 418 kts | 248° |
| 2026-05-07 15:13 | 45.52246 | 165.87497 | 31988 ft | 414 kts | 248° |
| 2026-05-07 15:14 | 45.49454 | 165.80276 | 31979 ft | 414 kts | 248° |
| 2026-05-07 15:14 | 45.46663 | 165.73079 | 31990 ft | 418 kts | 248° |
| 2026-05-07 15:15 | 45.43868 | 165.65895 | 31984 ft | 413 kts | 248° |
| 2026-05-07 15:15 | 45.41071 | 165.58716 | 31978 ft | 416 kts | 248° |
| 2026-05-07 15:16 | 45.38280 | 165.51575 | 31978 ft | 415 kts | 248° |
| 2026-05-07 15:16 | 45.35478 | 165.44421 | 31986 ft | 417 kts | 248° |
| 2026-05-07 15:17 | 45.32659 | 165.37251 | 31982 ft | 414 kts | 248° |
| 2026-05-07 15:17 | 45.29855 | 165.30125 | 31996 ft | 419 kts | 248° |
| 2026-05-07 15:18 | 45.27025 | 165.22961 | 32001 ft | 414 kts | 247° |
| 2026-05-07 15:18 | 45.24209 | 165.15845 | 32008 ft | 418 kts | 247° |
| 2026-05-07 15:19 | 45.21373 | 165.08702 | 32006 ft | 418 kts | 247° |
| 2026-05-07 15:19 | 45.18527 | 165.01550 | 32010 ft | 417 kts | 247° |
| 2026-05-07 15:20 | 45.15673 | 164.94398 | 31998 ft | 415 kts | 248° |
| 2026-05-07 15:20 | 45.12818 | 164.87257 | 32003 ft | 417 kts | 248° |
| 2026-05-07 15:21 | 45.09962 | 164.80138 | 32001 ft | 417 kts | 247° |
| 2026-05-07 15:21 | 45.07109 | 164.73039 | 32008 ft | 416 kts | 247° |
| 2026-05-07 15:22 | 45.04223 | 164.65878 | 32006 ft | 418 kts | 247° |
| 2026-05-07 15:22 | 45.01351 | 164.58771 | 31997 ft | 416 kts | 248° |
| 2026-05-07 15:23 | 44.98473 | 164.51668 | 32002 ft | 416 kts | 247° |
| 2026-05-07 15:23 | 44.95606 | 164.44606 | 32008 ft | 417 kts | 247° |
| 2026-05-07 15:24 | 44.92716 | 164.37511 | 32003 ft | 416 kts | 247° |
| 2026-05-07 15:24 | 44.89843 | 164.30470 | 32022 ft | 416 kts | 246° |
| 2026-05-07 15:25 | 44.86949 | 164.23396 | 32018 ft | 417 kts | 246° |
| 2026-05-07 15:25 | 44.84043 | 164.16315 | 32015 ft | 418 kts | 247° |
| 2026-05-07 15:26 | 44.81138 | 164.09251 | 32019 ft | 415 kts | 247° |
| 2026-05-07 15:26 | 44.78245 | 164.02232 | 32011 ft | 418 kts | 247° |
| 2026-05-07 15:27 | 44.75320 | 163.95155 | 32017 ft | 417 kts | 247° |
| 2026-05-07 15:27 | 44.72406 | 163.88124 | 32017 ft | 417 kts | 247° |
| 2026-05-07 15:28 | 44.69459 | 163.81027 | 32017 ft | 418 kts | 246° |
| 2026-05-07 15:28 | 44.66537 | 163.74011 | 32007 ft | 418 kts | 247° |
| 2026-05-07 15:29 | 44.63600 | 163.66977 | 32016 ft | 417 kts | 246° |
| 2026-05-07 15:29 | 44.60657 | 163.59944 | 32008 ft | 417 kts | 246° |
| 2026-05-07 15:30 | 44.57740 | 163.52994 | 32006 ft | 415 kts | 246° |
| 2026-05-07 15:30 | 44.54802 | 163.46005 | 32003 ft | 415 kts | 247° |
| 2026-05-07 15:31 | 44.51866 | 163.39043 | 32005 ft | 416 kts | 246° |
| 2026-05-07 15:31 | 44.48898 | 163.32016 | 32024 ft | 419 kts | 245° |
| 2026-05-07 15:32 | 44.45930 | 163.25011 | 32024 ft | 419 kts | 245° |
| 2026-05-07 15:32 | 44.42961 | 163.18022 | 32023 ft | 419 kts | 246° |
| 2026-05-07 15:33 | 44.40001 | 163.11067 | 32019 ft | 420 kts | 245° |
| 2026-05-07 15:33 | 44.37019 | 163.04082 | 32029 ft | 422 kts | 245° |
| 2026-05-07 15:34 | 44.34037 | 162.97113 | 32035 ft | 419 kts | 246° |
| 2026-05-07 15:34 | 44.31052 | 162.90155 | 32030 ft | 416 kts | 246° |
| 2026-05-07 15:35 | 44.28046 | 162.83160 | 32020 ft | 418 kts | 246° |
| 2026-05-07 15:35 | 44.25070 | 162.76256 | 32027 ft | 417 kts | 245° |
| 2026-05-07 15:36 | 44.22086 | 162.69348 | 32022 ft | 418 kts | 246° |
| 2026-05-07 15:36 | 44.19078 | 162.62404 | 32023 ft | 417 kts | 246° |
| 2026-05-07 15:37 | 44.16088 | 162.55516 | 32019 ft | 416 kts | 246° |
| 2026-05-07 15:37 | 44.13079 | 162.48599 | 32022 ft | 420 kts | 246° |
| 2026-05-07 15:38 | 44.10056 | 162.41670 | 32022 ft | 418 kts | 246° |
| 2026-05-07 15:38 | 44.07029 | 162.34744 | 32018 ft | 421 kts | 245° |
| 2026-05-07 15:39 | 44.03990 | 162.27814 | 32036 ft | 418 kts | 245° |
| 2026-05-07 15:39 | 44.00961 | 162.20920 | 32040 ft | 419 kts | 245° |
| 2026-05-07 15:40 | 43.97932 | 162.14041 | 32033 ft | 419 kts | 245° |
| 2026-05-07 15:40 | 43.94883 | 162.07136 | 32036 ft | 417 kts | 245° |
| 2026-05-07 15:41 | 43.91849 | 162.00278 | 32036 ft | 417 kts | 245° |
| 2026-05-07 15:41 | 43.88826 | 161.93460 | 32028 ft | 423 kts | 245° |
| 2026-05-07 15:42 | 43.85757 | 161.86562 | 32036 ft | 419 kts | 245° |
| 2026-05-07 15:42 | 43.82698 | 161.79698 | 32031 ft | 417 kts | 245° |
| 2026-05-07 15:43 | 43.79641 | 161.72853 | 32027 ft | 418 kts | 245° |
| 2026-05-07 15:43 | 43.76573 | 161.66000 | 32033 ft | 419 kts | 245° |
| 2026-05-07 15:44 | 43.73512 | 161.59178 | 32030 ft | 422 kts | 245° |
| 2026-05-07 15:44 | 43.70444 | 161.52362 | 32032 ft | 419 kts | 245° |
| 2026-05-07 15:45 | 43.67365 | 161.45534 | 32026 ft | 418 kts | 245° |
| 2026-05-07 15:45 | 43.64301 | 161.38756 | 32029 ft | 419 kts | 245° |
| 2026-05-07 15:46 | 43.59661 | 161.28520 | 32046 ft | 418 kts | 244° |
| 2026-05-07 15:47 | 43.56544 | 161.21663 | 32055 ft | 420 kts | 244° |
| 2026-05-07 15:47 | 43.53476 | 161.14932 | 32046 ft | 418 kts | 244° |
| 2026-05-07 15:48 | 43.50361 | 161.08112 | 32053 ft | 420 kts | 244° |
| 2026-05-07 15:48 | 43.47259 | 161.01338 | 32040 ft | 418 kts | 244° |
| 2026-05-07 15:49 | 43.44122 | 160.94498 | 32047 ft | 422 kts | 244° |
| 2026-05-07 15:49 | 43.41027 | 160.87772 | 32051 ft | 421 kts | 244° |
| 2026-05-07 15:50 | 43.37901 | 160.80992 | 32045 ft | 419 kts | 244° |
| 2026-05-07 15:50 | 43.34814 | 160.74309 | 32047 ft | 421 kts | 244° |
| 2026-05-07 15:51 | 43.31678 | 160.67539 | 32038 ft | 418 kts | 244° |
| 2026-05-07 15:51 | 43.28541 | 160.60780 | 32040 ft | 421 kts | 244° |
| 2026-05-07 15:52 | 43.25414 | 160.54060 | 32047 ft | 421 kts | 244° |
| 2026-05-07 15:52 | 43.22269 | 160.47317 | 32043 ft | 420 kts | 245° |
| 2026-05-07 15:53 | 43.19117 | 160.40573 | 32042 ft | 421 kts | 245° |
| 2026-05-07 15:53 | 43.15975 | 160.33867 | 32052 ft | 422 kts | 244° |
| 2026-05-07 15:54 | 43.12814 | 160.27135 | 32056 ft | 420 kts | 244° |
| 2026-05-07 15:54 | 43.09658 | 160.20428 | 32050 ft | 421 kts | 244° |
| 2026-05-07 15:55 | 43.06497 | 160.13728 | 32067 ft | 418 kts | 244° |
| 2026-05-07 15:55 | 43.03333 | 160.07033 | 32061 ft | 420 kts | 244° |
| 2026-05-07 15:56 | 43.00190 | 160.00401 | 32060 ft | 417 kts | 244° |
| 2026-05-07 15:56 | 42.97627 | 159.93468 | 32074 ft | 409 kts | 254° |
| 2026-05-07 15:57 | 42.95513 | 159.86243 | 32064 ft | 409 kts | 253° |
| 2026-05-07 15:57 | 42.93338 | 159.79094 | 32072 ft | 411 kts | 253° |
| 2026-05-07 15:58 | 42.91115 | 159.71950 | 32062 ft | 410 kts | 253° |
| 2026-05-07 15:58 | 42.88872 | 159.64824 | 32057 ft | 410 kts | 253° |
| 2026-05-07 15:59 | 42.86622 | 159.57726 | 32050 ft | 411 kts | 253° |
| 2026-05-07 15:59 | 42.84360 | 159.50626 | 32054 ft | 408 kts | 253° |
| 2026-05-07 16:00 | 42.82094 | 159.43536 | 32062 ft | 412 kts | 252° |
| 2026-05-07 16:00 | 42.79813 | 159.36427 | 32061 ft | 410 kts | 252° |
| 2026-05-07 16:01 | 42.77532 | 159.29338 | 32069 ft | 410 kts | 252° |
| 2026-05-07 16:01 | 42.75240 | 159.22232 | 32076 ft | 409 kts | 252° |
| 2026-05-07 16:02 | 42.72952 | 159.15160 | 32076 ft | 410 kts | 252° |
| 2026-05-07 16:02 | 42.70665 | 159.08109 | 32067 ft | 408 kts | 252° |
| 2026-05-07 16:03 | 42.68364 | 159.01031 | 32063 ft | 409 kts | 252° |
| 2026-05-07 16:03 | 42.66060 | 158.93962 | 32066 ft | 410 kts | 252° |
| 2026-05-07 16:04 | 42.63752 | 158.86905 | 32066 ft | 409 kts | 252° |
| 2026-05-07 16:04 | 42.61436 | 158.79837 | 32058 ft | 410 kts | 252° |
| 2026-05-07 16:05 | 42.59114 | 158.72772 | 32059 ft | 411 kts | 252° |
| 2026-05-07 16:05 | 42.56800 | 158.65750 | 32065 ft | 411 kts | 252° |
| 2026-05-07 16:06 | 42.54437 | 158.58588 | 32420 ft | 421 kts | 252° |
| 2026-05-07 16:06 | 42.53248 | 158.55003 | 33223 ft | 414 kts | 252° |
| 2026-05-07 16:06 | 42.52073 | 158.51465 | 33929 ft | 409 kts | 252° |
| 2026-05-07 16:06 | 42.50919 | 158.47987 | 34045 ft | 407 kts | 252° |
| 2026-05-07 16:07 | 42.49770 | 158.44528 | 34053 ft | 405 kts | 252° |
| 2026-05-07 16:07 | 42.47467 | 158.37611 | 34055 ft | 404 kts | 252° |
| 2026-05-07 16:08 | 42.45148 | 158.30659 | 34060 ft | 403 kts | 251° |
| 2026-05-07 16:08 | 42.42806 | 158.23662 | 34058 ft | 403 kts | 252° |
| 2026-05-07 16:09 | 42.40486 | 158.16742 | 34070 ft | 406 kts | 251° |
| 2026-05-07 16:09 | 42.38160 | 158.09830 | 34053 ft | 401 kts | 251° |
| 2026-05-07 16:10 | 42.35829 | 158.02914 | 34055 ft | 404 kts | 251° |
| 2026-05-07 16:10 | 42.33490 | 157.95995 | 34061 ft | 405 kts | 251° |
| 2026-05-07 16:11 | 42.31164 | 157.89131 | 34060 ft | 405 kts | 251° |
| 2026-05-07 16:11 | 42.28819 | 157.82228 | 34055 ft | 403 kts | 251° |
| 2026-05-07 16:12 | 42.26478 | 157.75354 | 34055 ft | 403 kts | 251° |
| 2026-05-07 16:12 | 42.24133 | 157.68488 | 34050 ft | 403 kts | 251° |
| 2026-05-07 16:13 | 42.21780 | 157.61612 | 34044 ft | 402 kts | 251° |
| 2026-05-07 16:13 | 42.19440 | 157.54793 | 34050 ft | 402 kts | 251° |
| 2026-05-07 16:14 | 42.17094 | 157.47971 | 34045 ft | 403 kts | 251° |
| 2026-05-07 16:14 | 42.14742 | 157.41150 | 34044 ft | 402 kts | 251° |
| 2026-05-07 16:15 | 42.12385 | 157.34332 | 34048 ft | 402 kts | 250° |
| 2026-05-07 16:15 | 42.10017 | 157.27499 | 34065 ft | 403 kts | 250° |
| 2026-05-07 16:16 | 42.07644 | 157.20668 | 34068 ft | 401 kts | 250° |
| 2026-05-07 16:16 | 42.05272 | 157.13855 | 34070 ft | 403 kts | 250° |
| 2026-05-07 16:17 | 42.02893 | 157.07040 | 34069 ft | 403 kts | 250° |
| 2026-05-07 16:17 | 42.00514 | 157.00244 | 34067 ft | 402 kts | 250° |
| 2026-05-07 16:18 | 41.98140 | 156.93472 | 34072 ft | 403 kts | 250° |
| 2026-05-07 16:18 | 41.95734 | 156.86633 | 34064 ft | 403 kts | 250° |
| 2026-05-07 16:19 | 41.93343 | 156.79851 | 34062 ft | 403 kts | 250° |
| 2026-05-07 16:19 | 41.90937 | 156.73039 | 34062 ft | 403 kts | 250° |
| 2026-05-07 16:20 | 41.88543 | 156.66280 | 34059 ft | 404 kts | 250° |
| 2026-05-07 16:20 | 41.86131 | 156.59489 | 34055 ft | 402 kts | 250° |
| 2026-05-07 16:21 | 41.83722 | 156.52719 | 34059 ft | 404 kts | 250° |
| 2026-05-07 16:21 | 41.81302 | 156.45935 | 34055 ft | 402 kts | 250° |
| 2026-05-07 16:22 | 41.78896 | 156.39208 | 34055 ft | 405 kts | 250° |
| 2026-05-07 16:22 | 41.76464 | 156.32423 | 34075 ft | 404 kts | 249° |
| 2026-05-07 16:23 | 41.74016 | 156.25610 | 34070 ft | 405 kts | 249° |
| 2026-05-07 16:23 | 41.71574 | 156.18834 | 34065 ft | 403 kts | 249° |
| 2026-05-07 16:24 | 41.69148 | 156.12115 | 34064 ft | 403 kts | 249° |
| 2026-05-07 16:24 | 41.66700 | 156.05351 | 34067 ft | 403 kts | 249° |
| 2026-05-07 16:25 | 41.64252 | 155.98602 | 34063 ft | 402 kts | 249° |
| 2026-05-07 16:25 | 41.61811 | 155.91890 | 34060 ft | 403 kts | 249° |
| 2026-05-07 16:26 | 41.59355 | 155.85152 | 34056 ft | 402 kts | 249° |
| 2026-05-07 16:26 | 41.56900 | 155.78432 | 34059 ft | 402 kts | 249° |
| 2026-05-07 16:27 | 41.54458 | 155.71764 | 34054 ft | 402 kts | 249° |
| 2026-05-07 16:27 | 41.51996 | 155.65057 | 34054 ft | 402 kts | 249° |
| 2026-05-07 16:28 | 41.49532 | 155.58359 | 34051 ft | 403 kts | 249° |
| 2026-05-07 16:28 | 41.47066 | 155.51675 | 34055 ft | 401 kts | 249° |
| 2026-05-07 16:29 | 41.44599 | 155.45001 | 34049 ft | 402 kts | 248° |
| 2026-05-07 16:29 | 41.42144 | 155.38373 | 34047 ft | 401 kts | 249° |
| 2026-05-07 16:30 | 41.39665 | 155.31699 | 34067 ft | 402 kts | 248° |
| 2026-05-07 16:30 | 41.37179 | 155.25021 | 34059 ft | 401 kts | 248° |
| 2026-05-07 16:31 | 41.34714 | 155.18413 | 34068 ft | 402 kts | 248° |
| 2026-05-07 16:31 | 41.32225 | 155.11757 | 34057 ft | 401 kts | 248° |
| 2026-05-07 16:32 | 41.29729 | 155.05098 | 34046 ft | 400 kts | 248° |
| 2026-05-07 16:32 | 41.27240 | 154.98473 | 34042 ft | 400 kts | 248° |
| 2026-05-07 16:33 | 41.24743 | 154.91843 | 34042 ft | 400 kts | 248° |
| 2026-05-07 16:33 | 41.22260 | 154.85261 | 34039 ft | 400 kts | 248° |
| 2026-05-07 16:34 | 41.19757 | 154.78645 | 34037 ft | 400 kts | 248° |
| 2026-05-07 16:34 | 41.17269 | 154.72084 | 34039 ft | 400 kts | 247° |
| 2026-05-07 16:35 | 41.14762 | 154.65485 | 34038 ft | 401 kts | 248° |
| 2026-05-07 16:35 | 41.12254 | 154.58899 | 34039 ft | 402 kts | 247° |
| 2026-05-07 16:36 | 41.09747 | 154.52331 | 34040 ft | 401 kts | 247° |
| 2026-05-07 16:36 | 41.07224 | 154.45735 | 34037 ft | 401 kts | 247° |
| 2026-05-07 16:37 | 41.04696 | 154.39142 | 34035 ft | 402 kts | 248° |
| 2026-05-07 16:37 | 41.02173 | 154.32576 | 34054 ft | 404 kts | 247° |
| 2026-05-07 16:38 | 40.99614 | 154.25931 | 34054 ft | 405 kts | 246° |
| 2026-05-07 16:38 | 40.97052 | 154.19296 | 34052 ft | 403 kts | 246° |
| 2026-05-07 16:39 | 40.94484 | 154.12657 | 34051 ft | 404 kts | 247° |
| 2026-05-07 16:39 | 40.91904 | 154.06006 | 34055 ft | 405 kts | 246° |
| 2026-05-07 16:40 | 40.89346 | 153.99423 | 34053 ft | 405 kts | 246° |
| 2026-05-07 16:40 | 40.86773 | 153.92818 | 34045 ft | 404 kts | 246° |
| 2026-05-07 16:41 | 40.84187 | 153.86194 | 34040 ft | 406 kts | 246° |
| 2026-05-07 16:41 | 40.81601 | 153.79584 | 34039 ft | 405 kts | 246° |
| 2026-05-07 16:42 | 40.79025 | 153.73015 | 34031 ft | 405 kts | 246° |
| 2026-05-07 16:42 | 40.76427 | 153.66406 | 34036 ft | 404 kts | 246° |
| 2026-05-07 16:43 | 40.73849 | 153.59860 | 34029 ft | 404 kts | 246° |
| 2026-05-07 16:43 | 40.71246 | 153.53267 | 34028 ft | 405 kts | 246° |
| 2026-05-07 16:44 | 40.68639 | 153.46675 | 34024 ft | 406 kts | 246° |
| 2026-05-07 16:44 | 40.66043 | 153.40131 | 34024 ft | 406 kts | 246° |
| 2026-05-07 16:45 | 40.63418 | 153.33524 | 34031 ft | 407 kts | 245° |
| 2026-05-07 16:45 | 40.60790 | 153.26927 | 34035 ft | 406 kts | 245° |
| 2026-05-07 16:46 | 40.58154 | 153.20322 | 34042 ft | 408 kts | 245° |
| 2026-05-07 16:46 | 40.55528 | 153.13757 | 34042 ft | 407 kts | 245° |
| 2026-05-07 16:47 | 40.52885 | 153.07164 | 34039 ft | 408 kts | 245° |
| 2026-05-07 16:47 | 40.50241 | 153.00586 | 34037 ft | 407 kts | 245° |
| 2026-05-07 16:48 | 40.47598 | 152.94023 | 34034 ft | 408 kts | 245° |
| 2026-05-07 16:48 | 40.44956 | 152.87476 | 34035 ft | 410 kts | 245° |
| 2026-05-07 16:49 | 40.42291 | 152.80887 | 34033 ft | 407 kts | 245° |
| 2026-05-07 16:49 | 40.39631 | 152.74326 | 34030 ft | 408 kts | 245° |
| 2026-05-07 16:50 | 40.36959 | 152.67749 | 34025 ft | 408 kts | 245° |
| 2026-05-07 16:50 | 40.34280 | 152.61166 | 34030 ft | 410 kts | 245° |
| 2026-05-07 16:51 | 40.31587 | 152.54568 | 34024 ft | 409 kts | 245° |
| 2026-05-07 16:51 | 40.28915 | 152.48033 | 34021 ft | 409 kts | 245° |
| 2026-05-07 16:52 | 40.26222 | 152.41460 | 34021 ft | 410 kts | 245° |
| 2026-05-07 16:52 | 40.23536 | 152.34921 | 34018 ft | 410 kts | 244° |
| 2026-05-07 16:53 | 40.20826 | 152.28337 | 34030 ft | 410 kts | 244° |
| 2026-05-07 16:53 | 40.18115 | 152.21762 | 34030 ft | 412 kts | 244° |
| 2026-05-07 16:54 | 40.15390 | 152.15170 | 34027 ft | 410 kts | 244° |
| 2026-05-07 16:54 | 40.12666 | 152.08595 | 34025 ft | 412 kts | 244° |
| 2026-05-07 16:55 | 40.09942 | 152.02035 | 34024 ft | 412 kts | 244° |
| 2026-05-07 16:55 | 40.07204 | 151.95456 | 34026 ft | 412 kts | 245° |
| 2026-05-07 16:56 | 40.04461 | 151.88878 | 34017 ft | 412 kts | 245° |
| 2026-05-07 16:56 | 40.00357 | 151.79060 | 34009 ft | 411 kts | 244° |